<?xml version="1.0" encoding="UTF-8"?>
<gpx creator="Garmin Connect" version="1.1"
  xsi:schemaLocation="http://www.topografix.com/GPX/1/1 http://www.topografix.com/GPX/11.xsd"
  xmlns:ns3="http://www.garmin.com/xmlschemas/TrackPointExtension/v1"
  xmlns="http://www.topografix.com/GPX/1/1"
  xmlns:xsi="http://www.w3.org/2001/XMLSchema-instance" xmlns:ns2="http://www.garmin.com/xmlschemas/GpxExtensions/v3">
  <metadata>
    <name>S - Dag 4</name>
    <link href="connect.garmin.com">
      <text>Garmin Connect</text>
    </link>
    <time>2025-01-27T11:22:29.000Z</time>
  </metadata>
  <wpt lat="58.65427308525334" lon="16.55593428759397">
    <ele>0.0</ele>
    <name>Kamp dag 4</name>
    <type>CAMPSITE</type>
  </wpt>
  <wpt lat="58.71229369025522" lon="16.41045487483132">
    <ele>0.0</ele>
    <name>Waterbron</name>
    <type>WATER</type>
  </wpt>
  <wpt lat="58.68672625544384" lon="16.47067997819121">
    <ele>0.0</ele>
    <name>Toilet</name>
    <type>TOILET</type>
  </wpt>
  <wpt lat="58.68664941835762" lon="16.47080404082142">
    <ele>0.0</ele>
    <name>Watermeer</name>
    <type>WATER</type>
  </wpt>
  <wpt lat="58.68662962181765" lon="16.47078530625082">
    <ele>0.0</ele>
    <name>Koerspunt</name>
    <type>GENERIC</type>
  </wpt>
  <wpt lat="58.68183508479078" lon="16.47190353735697">
    <ele>0.0</ele>
    <name>Kampvuur</name>
    <type>REST AREA</type>
  </wpt>
  <wpt lat="58.67976523217845" lon="16.4775766298457">
    <ele>0.0</ele>
    <name>Watermeer</name>
    <type>WATER</type>
  </wpt>
  <wpt lat="58.68085891018855" lon="16.47895098342503">
    <ele>0.0</ele>
    <name>Etappe 33</name>
    <type>TRANSITION</type>
  </wpt>
  <wpt lat="58.67394912360172" lon="16.50768604509395">
    <ele>0.0</ele>
    <name>Waterbron</name>
    <type>WATER</type>
  </wpt>
  <wpt lat="58.64736124580106" lon="16.53632606252957">
    <ele>0.0</ele>
    <name>zee</name>
    <type>ALERT</type>
  </wpt>
  <wpt lat="58.65109551352487" lon="16.5510504725623">
    <ele>0.0</ele>
    <name>Etappe 34</name>
    <type>TRANSITION</type>
  </wpt>
  <wpt lat="58.65296636830108" lon="16.55355190200516">
    <ele>0.0</ele>
    <name>Watermeer</name>
    <type>WATER</type>
  </wpt>
  <trk>
    <name>S - Dag 4</name>
    <trkseg>
      <trkpt lat="58.71958418749273" lon="16.414291793480515">
        <ele>91.19</ele>
        <time>2025-01-27T11:22:29.000Z</time>
      </trkpt>
      <trkpt lat="58.71969223022461" lon="16.41408920288086">
        <ele>91.95</ele>
        <time>2025-01-27T11:22:29.020Z</time>
      </trkpt>
      <trkpt lat="58.71990714222193" lon="16.41392793506384">
        <ele>92.99</ele>
        <time>2025-01-27T11:22:29.071Z</time>
      </trkpt>
      <trkpt lat="58.72012138366699" lon="16.413767337799072">
        <ele>93.62</ele>
        <time>2025-01-27T11:22:29.153Z</time>
      </trkpt>
      <trkpt lat="58.720293045043945" lon="16.413424015045166">
        <ele>93.85</ele>
        <time>2025-01-27T11:22:29.268Z</time>
      </trkpt>
      <trkpt lat="58.720550537109375" lon="16.413187980651855">
        <ele>93.94</ele>
        <time>2025-01-27T11:22:29.421Z</time>
      </trkpt>
      <trkpt lat="58.72070074081421" lon="16.412909030914307">
        <ele>94.4</ele>
        <time>2025-01-27T11:22:29.602Z</time>
      </trkpt>
      <trkpt lat="58.7207651976496" lon="16.41286611557007">
        <ele>94.62</ele>
        <time>2025-01-27T11:22:29.792Z</time>
      </trkpt>
      <trkpt lat="58.7209153175354" lon="16.412780284881592">
        <ele>94.85</ele>
        <time>2025-01-27T11:22:30.003Z</time>
      </trkpt>
      <trkpt lat="58.721044063568115" lon="16.41232967376709">
        <ele>94.79</ele>
        <time>2025-01-27T11:22:30.250Z</time>
      </trkpt>
      <trkpt lat="58.72104230336845" lon="16.412279969081283">
        <ele>94.6</ele>
        <time>2025-01-27T11:22:30.500Z</time>
      </trkpt>
      <trkpt lat="58.72104238718748" lon="16.412280136719346">
        <ele>93.95</ele>
        <time>2025-01-27T11:22:30.750Z</time>
      </trkpt>
      <trkpt lat="58.721022605895996" lon="16.411685943603516">
        <ele>93.34</ele>
        <time>2025-01-27T11:22:31.042Z</time>
      </trkpt>
      <trkpt lat="58.72095823287964" lon="16.411192417144775">
        <ele>92.53</ele>
        <time>2025-01-27T11:22:31.369Z</time>
      </trkpt>
      <trkpt lat="58.72088287957013" lon="16.410901816561818">
        <ele>91.7</ele>
        <time>2025-01-27T11:22:31.719Z</time>
      </trkpt>
      <trkpt lat="58.720808029174805" lon="16.41061305999756">
        <ele>90.89</ele>
        <time>2025-01-27T11:22:32.091Z</time>
      </trkpt>
      <trkpt lat="58.720851028338075" lon="16.4100980758667">
        <ele>90.44</ele>
        <time>2025-01-27T11:22:32.499Z</time>
      </trkpt>
      <trkpt lat="58.72080786153674" lon="16.409689038991928">
        <ele>90.0</ele>
        <time>2025-01-27T11:22:32.936Z</time>
      </trkpt>
      <trkpt lat="58.720765113830566" lon="16.409282684326172">
        <ele>89.75</ele>
        <time>2025-01-27T11:22:33.402Z</time>
      </trkpt>
      <trkpt lat="58.72059294953942" lon="16.408830815926194">
        <ele>89.47</ele>
        <time>2025-01-27T11:22:33.907Z</time>
      </trkpt>
      <trkpt lat="58.72042179107666" lon="16.408381462097168">
        <ele>89.28</ele>
        <time>2025-01-27T11:22:34.451Z</time>
      </trkpt>
      <trkpt lat="58.720324896276" lon="16.40797250904143">
        <ele>89.02</ele>
        <time>2025-01-27T11:22:35.026Z</time>
      </trkpt>
      <trkpt lat="58.72022867202759" lon="16.40756607055664">
        <ele>88.85</ele>
        <time>2025-01-27T11:22:35.632Z</time>
      </trkpt>
      <trkpt lat="58.720228588208556" lon="16.407227274030447">
        <ele>88.66</ele>
        <time>2025-01-27T11:22:36.262Z</time>
      </trkpt>
      <trkpt lat="58.720228588208556" lon="16.40722693875432">
        <ele>88.64</ele>
        <time>2025-01-27T11:22:36.892Z</time>
      </trkpt>
      <trkpt lat="58.72022867202759" lon="16.4072279445827">
        <ele>88.72</ele>
        <time>2025-01-27T11:22:37.522Z</time>
      </trkpt>
      <trkpt lat="58.72022867202759" lon="16.407201290130615">
        <ele>88.85</ele>
        <time>2025-01-27T11:22:38.154Z</time>
      </trkpt>
      <trkpt lat="58.72044324874878" lon="16.407437324523926">
        <ele>89.1</ele>
        <time>2025-01-27T11:22:38.819Z</time>
      </trkpt>
      <trkpt lat="58.72063645161688" lon="16.40784502029419">
        <ele>89.44</ele>
        <time>2025-01-27T11:22:39.522Z</time>
      </trkpt>
      <trkpt lat="58.72063636779785" lon="16.40784502029419">
        <ele>89.7</ele>
        <time>2025-01-27T11:22:40.225Z</time>
      </trkpt>
      <trkpt lat="58.72079755179584" lon="16.407941663637757">
        <ele>90.03</ele>
        <time>2025-01-27T11:22:40.951Z</time>
      </trkpt>
      <trkpt lat="58.72095823287964" lon="16.40803813934326">
        <ele>90.38</ele>
        <time>2025-01-27T11:22:41.699Z</time>
      </trkpt>
      <trkpt lat="58.72109804302454" lon="16.407726164907217">
        <ele>90.66</ele>
        <time>2025-01-27T11:22:42.476Z</time>
      </trkpt>
      <trkpt lat="58.72123726643622" lon="16.407415866851807">
        <ele>90.92</ele>
        <time>2025-01-27T11:22:43.281Z</time>
      </trkpt>
      <trkpt lat="58.7212694529444" lon="16.407017558813095">
        <ele>91.14</ele>
        <time>2025-01-27T11:22:44.114Z</time>
      </trkpt>
      <trkpt lat="58.721301555633545" lon="16.4066219329834">
        <ele>91.37</ele>
        <time>2025-01-27T11:22:44.975Z</time>
      </trkpt>
      <trkpt lat="58.721290742978454" lon="16.406277436763048">
        <ele>91.55</ele>
        <time>2025-01-27T11:22:45.860Z</time>
      </trkpt>
      <trkpt lat="58.721280097961426" lon="16.405935287475586">
        <ele>91.79</ele>
        <time>2025-01-27T11:22:46.769Z</time>
      </trkpt>
      <trkpt lat="58.72120834887028" lon="16.40554066747427">
        <ele>92.0</ele>
        <time>2025-01-27T11:22:47.707Z</time>
      </trkpt>
      <trkpt lat="58.72113659977913" lon="16.405146047472954">
        <ele>92.2</ele>
        <time>2025-01-27T11:22:48.674Z</time>
      </trkpt>
      <trkpt lat="58.721065521240234" lon="16.404755115509033">
        <ele>92.27</ele>
        <time>2025-01-27T11:22:49.670Z</time>
      </trkpt>
      <trkpt lat="58.72104397974908" lon="16.404168466106057">
        <ele>92.23</ele>
        <time>2025-01-27T11:22:50.707Z</time>
      </trkpt>
      <trkpt lat="58.72102243825793" lon="16.40358181670308">
        <ele>92.16</ele>
        <time>2025-01-27T11:22:51.785Z</time>
      </trkpt>
      <trkpt lat="58.72100089676678" lon="16.402995167300105">
        <ele>92.2</ele>
        <time>2025-01-27T11:22:52.903Z</time>
      </trkpt>
      <trkpt lat="58.72097969055176" lon="16.402416229248047">
        <ele>92.26</ele>
        <time>2025-01-27T11:22:54.062Z</time>
      </trkpt>
      <trkpt lat="58.72101196087897" lon="16.402071733027697">
        <ele>92.29</ele>
        <time>2025-01-27T11:22:55.245Z</time>
      </trkpt>
      <trkpt lat="58.721044063568115" lon="16.401729583740234">
        <ele>92.27</ele>
        <time>2025-01-27T11:22:56.452Z</time>
      </trkpt>
      <trkpt lat="58.72100098058581" lon="16.401428170502186">
        <ele>92.26</ele>
        <time>2025-01-27T11:22:57.681Z</time>
      </trkpt>
      <trkpt lat="58.72095823287964" lon="16.4011287689209">
        <ele>92.24</ele>
        <time>2025-01-27T11:22:58.932Z</time>
      </trkpt>
      <trkpt lat="58.721022605895996" lon="16.400635242462158">
        <ele>92.35</ele>
        <time>2025-01-27T11:23:00.218Z</time>
      </trkpt>
      <trkpt lat="58.72095823287964" lon="16.40035629272461">
        <ele>92.45</ele>
        <time>2025-01-27T11:23:01.525Z</time>
      </trkpt>
      <trkpt lat="58.72074373997748" lon="16.400034427642822">
        <ele>92.66</ele>
        <time>2025-01-27T11:23:02.869Z</time>
      </trkpt>
      <trkpt lat="58.720550537109375" lon="16.400163173675537">
        <ele>92.85</ele>
        <time>2025-01-27T11:23:04.240Z</time>
      </trkpt>
      <trkpt lat="58.720378540456295" lon="16.400184631347656">
        <ele>93.07</ele>
        <time>2025-01-27T11:23:05.634Z</time>
      </trkpt>
      <trkpt lat="58.72020721435547" lon="16.400206089019775">
        <ele>93.29</ele>
        <time>2025-01-27T11:23:07.051Z</time>
      </trkpt>
      <trkpt lat="58.7200140953064" lon="16.400656700134277">
        <ele>93.54</ele>
        <time>2025-01-27T11:23:08.508Z</time>
      </trkpt>
      <trkpt lat="58.71997126378119" lon="16.400678157806396">
        <ele>93.75</ele>
        <time>2025-01-27T11:23:09.971Z</time>
      </trkpt>
      <trkpt lat="58.71992826461792" lon="16.400699615478516">
        <ele>93.97</ele>
        <time>2025-01-27T11:23:11.440Z</time>
      </trkpt>
      <trkpt lat="58.71992834843695" lon="16.400699615478516">
        <ele>94.17</ele>
        <time>2025-01-27T11:23:12.909Z</time>
      </trkpt>
      <trkpt lat="58.7199068069458" lon="16.40080690383911">
        <ele>94.37</ele>
        <time>2025-01-27T11:23:14.386Z</time>
      </trkpt>
      <trkpt lat="58.72012138366699" lon="16.401150226593018">
        <ele>94.48</ele>
        <time>2025-01-27T11:23:15.901Z</time>
      </trkpt>
      <trkpt lat="58.71999263763428" lon="16.4015793800354">
        <ele>94.78</ele>
        <time>2025-01-27T11:23:17.450Z</time>
      </trkpt>
      <trkpt lat="58.71997117996216" lon="16.402137279510498">
        <ele>94.9</ele>
        <time>2025-01-27T11:23:19.038Z</time>
      </trkpt>
      <trkpt lat="58.719852827489376" lon="16.402470711618662">
        <ele>95.11</ele>
        <time>2025-01-27T11:23:20.654Z</time>
      </trkpt>
      <trkpt lat="58.71973514556885" lon="16.40280246734619">
        <ele>95.3</ele>
        <time>2025-01-27T11:23:22.298Z</time>
      </trkpt>
      <trkpt lat="58.719659792259336" lon="16.40320060774684">
        <ele>95.35</ele>
        <time>2025-01-27T11:23:23.971Z</time>
      </trkpt>
      <trkpt lat="58.719584941864014" lon="16.4035964012146">
        <ele>95.26</ele>
        <time>2025-01-27T11:23:25.674Z</time>
      </trkpt>
      <trkpt lat="58.71937036514282" lon="16.403982639312744">
        <ele>95.29</ele>
        <time>2025-01-27T11:23:27.416Z</time>
      </trkpt>
      <trkpt lat="58.719370448961854" lon="16.403982639312744">
        <ele>95.36</ele>
        <time>2025-01-27T11:23:29.158Z</time>
      </trkpt>
      <trkpt lat="58.719209181144834" lon="16.404068553820252">
        <ele>95.77</ele>
        <time>2025-01-27T11:23:30.922Z</time>
      </trkpt>
      <trkpt lat="58.719048500061035" lon="16.404154300689697">
        <ele>95.9</ele>
        <time>2025-01-27T11:23:32.709Z</time>
      </trkpt>
      <trkpt lat="58.71891941875219" lon="16.40442310832441">
        <ele>95.85</ele>
        <time>2025-01-27T11:23:34.521Z</time>
      </trkpt>
      <trkpt lat="58.718791007995605" lon="16.404690742492676">
        <ele>95.48</ele>
        <time>2025-01-27T11:23:36.358Z</time>
      </trkpt>
      <trkpt lat="58.718576012179255" lon="16.404894925653934">
        <ele>95.76</ele>
        <time>2025-01-27T11:23:38.228Z</time>
      </trkpt>
      <trkpt lat="58.71836185455322" lon="16.40509843826294">
        <ele>95.63</ele>
        <time>2025-01-27T11:23:40.129Z</time>
      </trkpt>
      <trkpt lat="58.71821911074221" lon="16.40530270524323">
        <ele>95.49</ele>
        <time>2025-01-27T11:23:42.054Z</time>
      </trkpt>
      <trkpt lat="58.71807779185474" lon="16.405504792928696">
        <ele>95.28</ele>
        <time>2025-01-27T11:23:44.003Z</time>
      </trkpt>
      <trkpt lat="58.71807779185474" lon="16.405504876747727">
        <ele>95.1</ele>
        <time>2025-01-27T11:23:45.952Z</time>
      </trkpt>
      <trkpt lat="58.71807787567377" lon="16.405504876747727">
        <ele>94.88</ele>
        <time>2025-01-27T11:23:47.901Z</time>
      </trkpt>
      <trkpt lat="58.71807686984539" lon="16.4055063854903">
        <ele>94.64</ele>
        <time>2025-01-27T11:23:49.850Z</time>
      </trkpt>
      <trkpt lat="58.718077037483454" lon="16.405506217852235">
        <ele>94.38</ele>
        <time>2025-01-27T11:23:51.799Z</time>
      </trkpt>
      <trkpt lat="58.717856761068106" lon="16.40582162886858">
        <ele>94.06</ele>
        <time>2025-01-27T11:23:53.785Z</time>
      </trkpt>
      <trkpt lat="58.71763648465276" lon="16.406136956065893">
        <ele>93.73</ele>
        <time>2025-01-27T11:23:55.807Z</time>
      </trkpt>
      <trkpt lat="58.71741771697998" lon="16.406450271606445">
        <ele>93.36</ele>
        <time>2025-01-27T11:23:57.866Z</time>
      </trkpt>
      <trkpt lat="58.71720280498266" lon="16.406435938552022">
        <ele>93.06</ele>
        <time>2025-01-27T11:23:59.954Z</time>
      </trkpt>
      <trkpt lat="58.716987892985344" lon="16.4064216054976">
        <ele>92.75</ele>
        <time>2025-01-27T11:24:02.070Z</time>
      </trkpt>
      <trkpt lat="58.716773986816406" lon="16.406407356262207">
        <ele>92.51</ele>
        <time>2025-01-27T11:24:04.215Z</time>
      </trkpt>
      <trkpt lat="58.71659469790757" lon="16.406729891896248">
        <ele>92.27</ele>
        <time>2025-01-27T11:24:06.393Z</time>
      </trkpt>
      <trkpt lat="58.71641549281776" lon="16.40705251134932">
        <ele>92.11</ele>
        <time>2025-01-27T11:24:08.604Z</time>
      </trkpt>
      <trkpt lat="58.71623754501343" lon="16.40737295150757">
        <ele>92.01</ele>
        <time>2025-01-27T11:24:10.847Z</time>
      </trkpt>
      <trkpt lat="58.71617836877704" lon="16.40785189345479">
        <ele>91.91</ele>
        <time>2025-01-27T11:24:13.124Z</time>
      </trkpt>
      <trkpt lat="58.716119192540646" lon="16.408330835402012">
        <ele>91.9</ele>
        <time>2025-01-27T11:24:15.436Z</time>
      </trkpt>
      <trkpt lat="58.716060016304255" lon="16.408809777349234">
        <ele>91.9</ele>
        <time>2025-01-27T11:24:17.782Z</time>
      </trkpt>
      <trkpt lat="58.71600159443915" lon="16.409282684326172">
        <ele>91.99</ele>
        <time>2025-01-27T11:24:20.162Z</time>
      </trkpt>
      <trkpt lat="58.715947698801756" lon="16.40959474258125">
        <ele>92.03</ele>
        <time>2025-01-27T11:24:22.565Z</time>
      </trkpt>
      <trkpt lat="58.71589422225952" lon="16.409904956817627">
        <ele>92.1</ele>
        <time>2025-01-27T11:24:24.990Z</time>
      </trkpt>
      <trkpt lat="58.71577586978674" lon="16.410410720854998">
        <ele>92.19</ele>
        <time>2025-01-27T11:24:27.454Z</time>
      </trkpt>
      <trkpt lat="58.71565827168524" lon="16.410913467407227">
        <ele>92.35</ele>
        <time>2025-01-27T11:24:29.956Z</time>
      </trkpt>
      <trkpt lat="58.71551837772131" lon="16.411182275041938">
        <ele>92.59</ele>
        <time>2025-01-27T11:24:32.485Z</time>
      </trkpt>
      <trkpt lat="58.71537923812866" lon="16.411449909210205">
        <ele>92.87</ele>
        <time>2025-01-27T11:24:35.040Z</time>
      </trkpt>
      <trkpt lat="58.71513205580413" lon="16.411557365208864">
        <ele>93.26</ele>
        <time>2025-01-27T11:24:37.629Z</time>
      </trkpt>
      <trkpt lat="58.71488571166992" lon="16.411664485931396">
        <ele>93.58</ele>
        <time>2025-01-27T11:24:40.252Z</time>
      </trkpt>
      <trkpt lat="58.714660070836544" lon="16.411632215604186">
        <ele>93.89</ele>
        <time>2025-01-27T11:24:42.905Z</time>
      </trkpt>
      <trkpt lat="58.71443510055542" lon="16.41160011291504">
        <ele>94.23</ele>
        <time>2025-01-27T11:24:45.588Z</time>
      </trkpt>
      <trkpt lat="58.714306354522705" lon="16.411492824554443">
        <ele>94.65</ele>
        <time>2025-01-27T11:24:48.290Z</time>
      </trkpt>
      <trkpt lat="58.714145170524716" lon="16.411460554227233">
        <ele>95.07</ele>
        <time>2025-01-27T11:24:51.013Z</time>
      </trkpt>
      <trkpt lat="58.71398448944092" lon="16.411428451538086">
        <ele>95.5</ele>
        <time>2025-01-27T11:24:53.758Z</time>
      </trkpt>
      <trkpt lat="58.71376949362457" lon="16.411277912557125">
        <ele>96.07</ele>
        <time>2025-01-27T11:24:56.534Z</time>
      </trkpt>
      <trkpt lat="58.713555335998535" lon="16.411128044128418">
        <ele>96.65</ele>
        <time>2025-01-27T11:24:59.340Z</time>
      </trkpt>
      <trkpt lat="58.71336221694946" lon="16.410956382751465">
        <ele>97.18</ele>
        <time>2025-01-27T11:25:02.174Z</time>
      </trkpt>
      <trkpt lat="58.71316909790039" lon="16.410634517669678">
        <ele>97.56</ele>
        <time>2025-01-27T11:25:05.043Z</time>
      </trkpt>
      <trkpt lat="58.7129648309201" lon="16.410419521853328">
        <ele>97.85</ele>
        <time>2025-01-27T11:25:07.943Z</time>
      </trkpt>
      <trkpt lat="58.71276148594916" lon="16.410205364227295">
        <ele>98.01</ele>
        <time>2025-01-27T11:25:10.874Z</time>
      </trkpt>
      <trkpt lat="58.71250399388373" lon="16.410205364227295">
        <ele>98.15</ele>
        <time>2025-01-27T11:25:13.839Z</time>
      </trkpt>
      <trkpt lat="58.71235345490277" lon="16.410388089716434">
        <ele>98.33</ele>
        <time>2025-01-27T11:25:16.828Z</time>
      </trkpt>
      <trkpt lat="58.71220358647406" lon="16.41057014465332">
        <ele>98.54</ele>
        <time>2025-01-27T11:25:19.841Z</time>
      </trkpt>
      <trkpt lat="58.71213912963867" lon="16.410634517669678">
        <ele>98.68</ele>
        <time>2025-01-27T11:25:22.863Z</time>
      </trkpt>
      <trkpt lat="58.711974173784256" lon="16.4110288862139">
        <ele>98.9</ele>
        <time>2025-01-27T11:25:25.921Z</time>
      </trkpt>
      <trkpt lat="58.71180921792984" lon="16.41142325475812">
        <ele>99.09</ele>
        <time>2025-01-27T11:25:29.014Z</time>
      </trkpt>
      <trkpt lat="58.71164560317993" lon="16.41181468963623">
        <ele>99.18</ele>
        <time>2025-01-27T11:25:32.142Z</time>
      </trkpt>
      <trkpt lat="58.711559772491455" lon="16.41228675842285">
        <ele>99.2</ele>
        <time>2025-01-27T11:25:35.304Z</time>
      </trkpt>
      <trkpt lat="58.71151685714722" lon="16.41280174255371">
        <ele>99.3</ele>
        <time>2025-01-27T11:25:38.503Z</time>
      </trkpt>
      <trkpt lat="58.711538314819336" lon="16.413230895996094">
        <ele>99.51</ele>
        <time>2025-01-27T11:25:41.732Z</time>
      </trkpt>
      <trkpt lat="58.71140956878662" lon="16.413424015045166">
        <ele>99.75</ele>
        <time>2025-01-27T11:25:44.983Z</time>
      </trkpt>
      <trkpt lat="58.71123790740967" lon="16.413466930389404">
        <ele>100.04</ele>
        <time>2025-01-27T11:25:48.257Z</time>
      </trkpt>
      <trkpt lat="58.71110916137695" lon="16.413402557373047">
        <ele>100.32</ele>
        <time>2025-01-27T11:25:51.548Z</time>
      </trkpt>
      <trkpt lat="58.71087312698364" lon="16.413638591766357">
        <ele>100.55</ele>
        <time>2025-01-27T11:25:54.875Z</time>
      </trkpt>
      <trkpt lat="58.7107009626925" lon="16.414133459329605">
        <ele>100.8</ele>
        <time>2025-01-27T11:25:58.243Z</time>
      </trkpt>
      <trkpt lat="58.710529804229736" lon="16.414625644683838">
        <ele>101.09</ele>
        <time>2025-01-27T11:26:01.653Z</time>
      </trkpt>
      <trkpt lat="58.7103796005249" lon="16.414883136749268">
        <ele>101.36</ele>
        <time>2025-01-27T11:26:05.090Z</time>
      </trkpt>
      <trkpt lat="58.710315227508545" lon="16.415398120880127">
        <ele>101.78</ele>
        <time>2025-01-27T11:26:08.563Z</time>
      </trkpt>
      <trkpt lat="58.71036543510854" lon="16.415807073935866">
        <ele>102.23</ele>
        <time>2025-01-27T11:26:12.066Z</time>
      </trkpt>
      <trkpt lat="58.71041564270854" lon="16.416216110810637">
        <ele>102.8</ele>
        <time>2025-01-27T11:26:15.598Z</time>
      </trkpt>
      <trkpt lat="58.71046543121338" lon="16.416621208190918">
        <ele>103.4</ele>
        <time>2025-01-27T11:26:19.159Z</time>
      </trkpt>
      <trkpt lat="58.710400806739926" lon="16.416900912299752">
        <ele>103.89</ele>
        <time>2025-01-27T11:26:22.741Z</time>
      </trkpt>
      <trkpt lat="58.710336685180664" lon="16.417179107666016">
        <ele>104.38</ele>
        <time>2025-01-27T11:26:26.344Z</time>
      </trkpt>
      <trkpt lat="58.71022906154394" lon="16.417587976902723">
        <ele>104.94</ele>
        <time>2025-01-27T11:26:29.979Z</time>
      </trkpt>
      <trkpt lat="58.71012210845947" lon="16.417994499206543">
        <ele>105.42</ele>
        <time>2025-01-27T11:26:33.646Z</time>
      </trkpt>
      <trkpt lat="58.71001482009888" lon="16.418423652648926">
        <ele>105.87</ele>
        <time>2025-01-27T11:26:37.346Z</time>
      </trkpt>
      <trkpt lat="58.709875009953976" lon="16.418670918792486">
        <ele>106.19</ele>
        <time>2025-01-27T11:26:41.071Z</time>
      </trkpt>
      <trkpt lat="58.70973587036133" lon="16.418917179107666">
        <ele>106.55</ele>
        <time>2025-01-27T11:26:44.822Z</time>
      </trkpt>
      <trkpt lat="58.70949933305383" lon="16.419239714741707">
        <ele>106.83</ele>
        <time>2025-01-27T11:26:48.611Z</time>
      </trkpt>
      <trkpt lat="58.70926380157471" lon="16.41956090927124">
        <ele>107.19</ele>
        <time>2025-01-27T11:26:52.439Z</time>
      </trkpt>
      <trkpt lat="58.709048721939325" lon="16.419811695814133">
        <ele>107.65</ele>
        <time>2025-01-27T11:26:56.301Z</time>
      </trkpt>
      <trkpt lat="58.708833726122975" lon="16.420062566176057">
        <ele>108.12</ele>
        <time>2025-01-27T11:27:00.196Z</time>
      </trkpt>
      <trkpt lat="58.70862007141113" lon="16.42031192779541">
        <ele>108.47</ele>
        <time>2025-01-27T11:27:04.125Z</time>
      </trkpt>
      <trkpt lat="58.708513118326664" lon="16.420760108157992">
        <ele>108.72</ele>
        <time>2025-01-27T11:27:08.088Z</time>
      </trkpt>
      <trkpt lat="58.708513118326664" lon="16.42076044343412">
        <ele>108.86</ele>
        <time>2025-01-27T11:27:12.051Z</time>
      </trkpt>
      <trkpt lat="58.708513202145696" lon="16.42076044343412">
        <ele>108.93</ele>
        <time>2025-01-27T11:27:16.014Z</time>
      </trkpt>
      <trkpt lat="58.70851253159344" lon="16.42076337710023">
        <ele>108.92</ele>
        <time>2025-01-27T11:27:19.977Z</time>
      </trkpt>
      <trkpt lat="58.70851278305054" lon="16.420762538909912">
        <ele>108.84</ele>
        <time>2025-01-27T11:27:23.940Z</time>
      </trkpt>
      <trkpt lat="58.70850373059511" lon="16.420759353786707">
        <ele>108.67</ele>
        <time>2025-01-27T11:27:27.904Z</time>
      </trkpt>
      <trkpt lat="58.70850373059511" lon="16.42075943760574">
        <ele>108.42</ele>
        <time>2025-01-27T11:27:31.868Z</time>
      </trkpt>
      <trkpt lat="58.70847137644887" lon="16.421125140041113">
        <ele>108.11</ele>
        <time>2025-01-27T11:27:35.858Z</time>
      </trkpt>
      <trkpt lat="58.708438938483596" lon="16.42148899845779">
        <ele>107.63</ele>
        <time>2025-01-27T11:27:39.874Z</time>
      </trkpt>
      <trkpt lat="58.70848914608359" lon="16.421898286789656">
        <ele>107.11</ele>
        <time>2025-01-27T11:27:43.919Z</time>
      </trkpt>
      <trkpt lat="58.70853893458843" lon="16.42230497673154">
        <ele>106.52</ele>
        <time>2025-01-27T11:27:47.993Z</time>
      </trkpt>
      <trkpt lat="58.70863172225654" lon="16.422733711078763">
        <ele>105.89</ele>
        <time>2025-01-27T11:27:52.100Z</time>
      </trkpt>
      <trkpt lat="58.70872392319143" lon="16.423159930855036">
        <ele>105.19</ele>
        <time>2025-01-27T11:27:56.239Z</time>
      </trkpt>
      <trkpt lat="58.70881620794535" lon="16.423559663817286">
        <ele>104.47</ele>
        <time>2025-01-27T11:28:00.408Z</time>
      </trkpt>
      <trkpt lat="58.708907989785075" lon="16.423956966027617">
        <ele>103.63</ele>
        <time>2025-01-27T11:28:04.607Z</time>
      </trkpt>
      <trkpt lat="58.70897613465786" lon="16.424288470298052">
        <ele>102.84</ele>
        <time>2025-01-27T11:28:08.831Z</time>
      </trkpt>
      <trkpt lat="58.70904394425452" lon="16.424617962911725">
        <ele>102.13</ele>
        <time>2025-01-27T11:28:13.080Z</time>
      </trkpt>
      <trkpt lat="58.70925894007087" lon="16.4249749481678">
        <ele>101.48</ele>
        <time>2025-01-27T11:28:17.367Z</time>
      </trkpt>
      <trkpt lat="58.709251983091235" lon="16.42509992234409">
        <ele>100.87</ele>
        <time>2025-01-27T11:28:21.662Z</time>
      </trkpt>
      <trkpt lat="58.70930696837604" lon="16.425473922863603">
        <ele>100.29</ele>
        <time>2025-01-27T11:28:25.984Z</time>
      </trkpt>
      <trkpt lat="58.70941199362278" lon="16.425973987206817">
        <ele>99.74</ele>
        <time>2025-01-27T11:28:30.344Z</time>
      </trkpt>
      <trkpt lat="58.70947519317269" lon="16.426443457603455">
        <ele>99.23</ele>
        <time>2025-01-27T11:28:34.738Z</time>
      </trkpt>
      <trkpt lat="58.70953797362745" lon="16.426909994333982">
        <ele>98.76</ele>
        <time>2025-01-27T11:28:39.165Z</time>
      </trkpt>
      <trkpt lat="58.70956152677536" lon="16.427237559109926">
        <ele>98.31</ele>
        <time>2025-01-27T11:28:43.615Z</time>
      </trkpt>
      <trkpt lat="58.70958499610424" lon="16.427562944591045">
        <ele>97.94</ele>
        <time>2025-01-27T11:28:48.088Z</time>
      </trkpt>
      <trkpt lat="58.70962397195399" lon="16.42774692736566">
        <ele>97.53</ele>
        <time>2025-01-27T11:28:52.575Z</time>
      </trkpt>
      <trkpt lat="58.70960595086217" lon="16.428124951198697">
        <ele>97.14</ele>
        <time>2025-01-27T11:28:57.088Z</time>
      </trkpt>
      <trkpt lat="58.70956999249756" lon="16.428481936454773">
        <ele>96.7</ele>
        <time>2025-01-27T11:29:01.627Z</time>
      </trkpt>
      <trkpt lat="58.709551971405745" lon="16.428531976416707">
        <ele>96.36</ele>
        <time>2025-01-27T11:29:06.170Z</time>
      </trkpt>
      <trkpt lat="58.70951894670725" lon="16.42857799306512">
        <ele>96.04</ele>
        <time>2025-01-27T11:29:10.718Z</time>
      </trkpt>
      <trkpt lat="58.709253994747996" lon="16.4285599719733">
        <ele>95.69</ele>
        <time>2025-01-27T11:29:15.302Z</time>
      </trkpt>
      <trkpt lat="58.708971524611115" lon="16.42849685624242">
        <ele>95.29</ele>
        <time>2025-01-27T11:29:19.924Z</time>
      </trkpt>
      <trkpt lat="58.70868997648358" lon="16.42843399196863">
        <ele>94.94</ele>
        <time>2025-01-27T11:29:24.584Z</time>
      </trkpt>
      <trkpt lat="58.708394933491945" lon="16.42838495783508">
        <ele>94.77</ele>
        <time>2025-01-27T11:29:29.283Z</time>
      </trkpt>
      <trkpt lat="58.708173148334026" lon="16.428360901772976">
        <ele>94.8</ele>
        <time>2025-01-27T11:29:34.012Z</time>
      </trkpt>
      <trkpt lat="58.70795194990933" lon="16.428336929529905">
        <ele>94.84</ele>
        <time>2025-01-27T11:29:38.770Z</time>
      </trkpt>
      <trkpt lat="58.70777165517211" lon="16.428353022783995">
        <ele>94.91</ele>
        <time>2025-01-27T11:29:43.553Z</time>
      </trkpt>
      <trkpt lat="58.70759194716811" lon="16.42836894840002">
        <ele>95.05</ele>
        <time>2025-01-27T11:29:48.360Z</time>
      </trkpt>
      <trkpt lat="58.70733420364559" lon="16.4284460619092">
        <ele>95.14</ele>
        <time>2025-01-27T11:29:53.202Z</time>
      </trkpt>
      <trkpt lat="58.707076543942094" lon="16.428523175418377">
        <ele>95.26</ele>
        <time>2025-01-27T11:29:58.078Z</time>
      </trkpt>
      <trkpt lat="58.70681997388601" lon="16.428599953651428">
        <ele>95.49</ele>
        <time>2025-01-27T11:30:02.989Z</time>
      </trkpt>
      <trkpt lat="58.70664797723293" lon="16.428701961413026">
        <ele>95.82</ele>
        <time>2025-01-27T11:30:07.924Z</time>
      </trkpt>
      <trkpt lat="58.70644396170974" lon="16.428854260593653">
        <ele>96.23</ele>
        <time>2025-01-27T11:30:12.888Z</time>
      </trkpt>
      <trkpt lat="58.70623994618654" lon="16.429006475955248">
        <ele>96.77</ele>
        <time>2025-01-27T11:30:17.882Z</time>
      </trkpt>
      <trkpt lat="58.70603693649173" lon="16.429157936945558">
        <ele>97.41</ele>
        <time>2025-01-27T11:30:22.905Z</time>
      </trkpt>
      <trkpt lat="58.70585412718356" lon="16.429327251389623">
        <ele>98.16</ele>
        <time>2025-01-27T11:30:27.955Z</time>
      </trkpt>
      <trkpt lat="58.70567198842764" lon="16.429495979100466">
        <ele>99.02</ele>
        <time>2025-01-27T11:30:33.032Z</time>
      </trkpt>
      <trkpt lat="58.70544693432748" lon="16.429680632427335">
        <ele>99.84</ele>
        <time>2025-01-27T11:30:38.142Z</time>
      </trkpt>
      <trkpt lat="58.705221796408296" lon="16.429865285754204">
        <ele>100.65</ele>
        <time>2025-01-27T11:30:43.284Z</time>
      </trkpt>
      <trkpt lat="58.704997999593616" lon="16.430048933252692">
        <ele>101.3</ele>
        <time>2025-01-27T11:30:48.459Z</time>
      </trkpt>
      <trkpt lat="58.70473581366241" lon="16.43029309809208">
        <ele>101.91</ele>
        <time>2025-01-27T11:30:53.673Z</time>
      </trkpt>
      <trkpt lat="58.704473711550236" lon="16.430537179112434">
        <ele>102.5</ele>
        <time>2025-01-27T11:30:58.926Z</time>
      </trkpt>
      <trkpt lat="58.70421295054257" lon="16.430779919028282">
        <ele>103.02</ele>
        <time>2025-01-27T11:31:04.217Z</time>
      </trkpt>
      <trkpt lat="58.70412896387279" lon="16.430853931233287">
        <ele>103.39</ele>
        <time>2025-01-27T11:31:09.521Z</time>
      </trkpt>
      <trkpt lat="58.70399996638298" lon="16.430891985073686">
        <ele>103.67</ele>
        <time>2025-01-27T11:31:14.842Z</time>
      </trkpt>
      <trkpt lat="58.70390893891454" lon="16.430819984525442">
        <ele>103.82</ele>
        <time>2025-01-27T11:31:20.176Z</time>
      </trkpt>
      <trkpt lat="58.70371498167515" lon="16.431084936484694">
        <ele>103.83</ele>
        <time>2025-01-27T11:31:25.542Z</time>
      </trkpt>
      <trkpt lat="58.703552121296525" lon="16.431337483227253">
        <ele>103.71</ele>
        <time>2025-01-27T11:31:30.936Z</time>
      </trkpt>
      <trkpt lat="58.703389931470156" lon="16.4315889403224">
        <ele>103.39</ele>
        <time>2025-01-27T11:31:36.358Z</time>
      </trkpt>
      <trkpt lat="58.70323813520372" lon="16.43180795945227">
        <ele>103.05</ele>
        <time>2025-01-27T11:31:41.805Z</time>
      </trkpt>
      <trkpt lat="58.703086925670505" lon="16.432025972753763">
        <ele>102.54</ele>
        <time>2025-01-27T11:31:47.278Z</time>
      </trkpt>
      <trkpt lat="58.70296496897936" lon="16.432215990498662">
        <ele>102.0</ele>
        <time>2025-01-27T11:31:52.772Z</time>
      </trkpt>
      <trkpt lat="58.702890956774354" lon="16.432208949699998">
        <ele>101.43</ele>
        <time>2025-01-27T11:31:58.276Z</time>
      </trkpt>
      <trkpt lat="58.70283898897469" lon="16.43223392777145">
        <ele>100.8</ele>
        <time>2025-01-27T11:32:03.787Z</time>
      </trkpt>
      <trkpt lat="58.702762965112925" lon="16.43231699243188">
        <ele>100.14</ele>
        <time>2025-01-27T11:32:09.309Z</time>
      </trkpt>
      <trkpt lat="58.70251997373998" lon="16.432611029595137">
        <ele>99.3</ele>
        <time>2025-01-27T11:32:14.870Z</time>
      </trkpt>
      <trkpt lat="58.70227798819542" lon="16.432903977110982">
        <ele>98.42</ele>
        <time>2025-01-27T11:32:20.469Z</time>
      </trkpt>
      <trkpt lat="58.70210791938007" lon="16.433058958500624">
        <ele>97.56</ele>
        <time>2025-01-27T11:32:26.093Z</time>
      </trkpt>
      <trkpt lat="58.70194422081113" lon="16.433161636814475">
        <ele>96.73</ele>
        <time>2025-01-27T11:32:31.740Z</time>
      </trkpt>
      <trkpt lat="58.70178094133735" lon="16.4332639798522">
        <ele>95.99</ele>
        <time>2025-01-27T11:32:37.410Z</time>
      </trkpt>
      <trkpt lat="58.701565945521" lon="16.43333095125854">
        <ele>95.31</ele>
        <time>2025-01-27T11:32:43.109Z</time>
      </trkpt>
      <trkpt lat="58.701474918052554" lon="16.43334997817874">
        <ele>94.71</ele>
        <time>2025-01-27T11:32:48.821Z</time>
      </trkpt>
      <trkpt lat="58.70117945596576" lon="16.433495823293924">
        <ele>94.24</ele>
        <time>2025-01-27T11:32:54.573Z</time>
      </trkpt>
      <trkpt lat="58.70088399387896" lon="16.43364175222814">
        <ele>93.76</ele>
        <time>2025-01-27T11:33:00.366Z</time>
      </trkpt>
      <trkpt lat="58.7005899567157" lon="16.433786926791072">
        <ele>93.43</ele>
        <time>2025-01-27T11:33:06.200Z</time>
      </trkpt>
      <trkpt lat="58.70030094869435" lon="16.433963030576706">
        <ele>93.2</ele>
        <time>2025-01-27T11:33:12.074Z</time>
      </trkpt>
      <trkpt lat="58.700012024492025" lon="16.43413905054331">
        <ele>92.89</ele>
        <time>2025-01-27T11:33:17.989Z</time>
      </trkpt>
      <trkpt lat="58.69972301647067" lon="16.43431507050991">
        <ele>92.66</ele>
        <time>2025-01-27T11:33:23.944Z</time>
      </trkpt>
      <trkpt lat="58.699435936287045" lon="16.43448991701007">
        <ele>92.39</ele>
        <time>2025-01-27T11:33:29.940Z</time>
      </trkpt>
      <trkpt lat="58.69917433708906" lon="16.434631487354636">
        <ele>92.25</ele>
        <time>2025-01-27T11:33:35.972Z</time>
      </trkpt>
      <trkpt lat="58.69891282171011" lon="16.434773057699203">
        <ele>92.11</ele>
        <time>2025-01-27T11:33:42.040Z</time>
      </trkpt>
      <trkpt lat="58.698651222512126" lon="16.43491462804377">
        <ele>92.02</ele>
        <time>2025-01-27T11:33:48.144Z</time>
      </trkpt>
      <trkpt lat="58.69838962331414" lon="16.435056198388338">
        <ele>92.01</ele>
        <time>2025-01-27T11:33:54.285Z</time>
      </trkpt>
      <trkpt lat="58.69812802411616" lon="16.435197768732905">
        <ele>91.97</ele>
        <time>2025-01-27T11:34:00.462Z</time>
      </trkpt>
      <trkpt lat="58.697868939489126" lon="16.435337997972965">
        <ele>91.9</ele>
        <time>2025-01-27T11:34:06.675Z</time>
      </trkpt>
      <trkpt lat="58.69780205190182" lon="16.435773689299822">
        <ele>91.85</ele>
        <time>2025-01-27T11:34:12.920Z</time>
      </trkpt>
      <trkpt lat="58.69773524813354" lon="16.43620938062668">
        <ele>91.87</ele>
        <time>2025-01-27T11:34:19.196Z</time>
      </trkpt>
      <trkpt lat="58.69766894727945" lon="16.43664096482098">
        <ele>91.83</ele>
        <time>2025-01-27T11:34:25.504Z</time>
      </trkpt>
      <trkpt lat="58.69768152013421" lon="16.437079925090075">
        <ele>91.81</ele>
        <time>2025-01-27T11:34:31.842Z</time>
      </trkpt>
      <trkpt lat="58.697693925350904" lon="16.437515951693058">
        <ele>91.77</ele>
        <time>2025-01-27T11:34:38.211Z</time>
      </trkpt>
      <trkpt lat="58.69771907106042" lon="16.438055746257305">
        <ele>91.75</ele>
        <time>2025-01-27T11:34:44.617Z</time>
      </trkpt>
      <trkpt lat="58.6977441329509" lon="16.43859545700252">
        <ele>91.76</ele>
        <time>2025-01-27T11:34:51.061Z</time>
      </trkpt>
      <trkpt lat="58.697769194841385" lon="16.439135251566768">
        <ele>91.77</ele>
        <time>2025-01-27T11:34:57.543Z</time>
      </trkpt>
      <trkpt lat="58.6977943405509" lon="16.439674962311983">
        <ele>91.81</ele>
        <time>2025-01-27T11:35:04.062Z</time>
      </trkpt>
      <trkpt lat="58.69781940244138" lon="16.44021475687623">
        <ele>91.96</ele>
        <time>2025-01-27T11:35:10.619Z</time>
      </trkpt>
      <trkpt lat="58.697844464331865" lon="16.440754551440477">
        <ele>92.18</ele>
        <time>2025-01-27T11:35:17.214Z</time>
      </trkpt>
      <trkpt lat="58.697868939489126" lon="16.44128194078803">
        <ele>92.46</ele>
        <time>2025-01-27T11:35:23.846Z</time>
      </trkpt>
      <trkpt lat="58.69788855314255" lon="16.44184428267181">
        <ele>92.8</ele>
        <time>2025-01-27T11:35:30.517Z</time>
      </trkpt>
      <trkpt lat="58.69790808297694" lon="16.442406624555588">
        <ele>93.21</ele>
        <time>2025-01-27T11:35:37.227Z</time>
      </trkpt>
      <trkpt lat="58.69792769663036" lon="16.442968966439366">
        <ele>93.74</ele>
        <time>2025-01-27T11:35:43.976Z</time>
      </trkpt>
      <trkpt lat="58.69794697500765" lon="16.443523932248354">
        <ele>94.35</ele>
        <time>2025-01-27T11:35:50.764Z</time>
      </trkpt>
      <trkpt lat="58.69812433607876" lon="16.443859711289406">
        <ele>94.9</ele>
        <time>2025-01-27T11:35:57.585Z</time>
      </trkpt>
      <trkpt lat="58.69830094277859" lon="16.444193981587887">
        <ele>95.49</ele>
        <time>2025-01-27T11:36:04.439Z</time>
      </trkpt>
      <trkpt lat="58.69845877401531" lon="16.444390369579196">
        <ele>96.05</ele>
        <time>2025-01-27T11:36:11.319Z</time>
      </trkpt>
      <trkpt lat="58.698615934699774" lon="16.444585919380188">
        <ele>96.64</ele>
        <time>2025-01-27T11:36:18.224Z</time>
      </trkpt>
      <trkpt lat="58.69890494272113" lon="16.444685999304056">
        <ele>97.35</ele>
        <time>2025-01-27T11:36:25.168Z</time>
      </trkpt>
      <trkpt lat="58.69901994243264" lon="16.444746935740113">
        <ele>98.0</ele>
        <time>2025-01-27T11:36:32.128Z</time>
      </trkpt>
      <trkpt lat="58.69927994906902" lon="16.444961931556463">
        <ele>98.78</ele>
        <time>2025-01-27T11:36:39.126Z</time>
      </trkpt>
      <trkpt lat="58.69936091825366" lon="16.445121942088008">
        <ele>99.31</ele>
        <time>2025-01-27T11:36:46.139Z</time>
      </trkpt>
      <trkpt lat="58.699408108368516" lon="16.445507174357772">
        <ele>99.73</ele>
        <time>2025-01-27T11:36:53.180Z</time>
      </trkpt>
      <trkpt lat="58.699454963207245" lon="16.445889975875616">
        <ele>100.05</ele>
        <time>2025-01-27T11:37:00.248Z</time>
      </trkpt>
      <trkpt lat="58.69952520355582" lon="16.446231454610825">
        <ele>100.3</ele>
        <time>2025-01-27T11:37:07.342Z</time>
      </trkpt>
      <trkpt lat="58.69959494099021" lon="16.446570921689272">
        <ele>100.43</ele>
        <time>2025-01-27T11:37:14.461Z</time>
      </trkpt>
      <trkpt lat="58.69954984635115" lon="16.446896474808455">
        <ele>100.31</ele>
        <time>2025-01-27T11:37:21.603Z</time>
      </trkpt>
      <trkpt lat="58.69950491935015" lon="16.447219932451844">
        <ele>100.15</ele>
        <time>2025-01-27T11:37:28.769Z</time>
      </trkpt>
      <trkpt lat="58.69941892102361" lon="16.447455966845155">
        <ele>99.89</ele>
        <time>2025-01-27T11:37:35.955Z</time>
      </trkpt>
      <trkpt lat="58.69935496710241" lon="16.447549927979708">
        <ele>99.59</ele>
        <time>2025-01-27T11:37:43.151Z</time>
      </trkpt>
      <trkpt lat="58.69922211393714" lon="16.44791998900473">
        <ele>99.16</ele>
        <time>2025-01-27T11:37:50.379Z</time>
      </trkpt>
      <trkpt lat="58.699089931324124" lon="16.44828795455396">
        <ele>98.79</ele>
        <time>2025-01-27T11:37:57.638Z</time>
      </trkpt>
      <trkpt lat="58.699034275487065" lon="16.44868567585945">
        <ele>98.41</ele>
        <time>2025-01-27T11:38:04.926Z</time>
      </trkpt>
      <trkpt lat="58.69897895492613" lon="16.44908096641302">
        <ele>98.08</ele>
        <time>2025-01-27T11:38:12.242Z</time>
      </trkpt>
      <trkpt lat="58.69901977479458" lon="16.449597626924515">
        <ele>97.8</ele>
        <time>2025-01-27T11:38:19.594Z</time>
      </trkpt>
      <trkpt lat="58.699060594663024" lon="16.45011428743601">
        <ele>97.46</ele>
        <time>2025-01-27T11:38:26.983Z</time>
      </trkpt>
      <trkpt lat="58.69910099543631" lon="16.4506259188056">
        <ele>97.11</ele>
        <time>2025-01-27T11:38:34.408Z</time>
      </trkpt>
      <trkpt lat="58.69914692826569" lon="16.451068986207247">
        <ele>96.72</ele>
        <time>2025-01-27T11:38:41.864Z</time>
      </trkpt>
      <trkpt lat="58.69894559495151" lon="16.45129739306867">
        <ele>96.36</ele>
        <time>2025-01-27T11:38:49.351Z</time>
      </trkpt>
      <trkpt lat="58.698744932189584" lon="16.45152496173978">
        <ele>95.96</ele>
        <time>2025-01-27T11:38:56.870Z</time>
      </trkpt>
      <trkpt lat="58.69861291721463" lon="16.451650941744447">
        <ele>95.72</ele>
        <time>2025-01-27T11:39:04.408Z</time>
      </trkpt>
      <trkpt lat="58.69855793192983" lon="16.451789997518063">
        <ele>95.53</ele>
        <time>2025-01-27T11:39:11.958Z</time>
      </trkpt>
      <trkpt lat="58.698478722944856" lon="16.45214656367898">
        <ele>95.4</ele>
        <time>2025-01-27T11:39:19.535Z</time>
      </trkpt>
      <trkpt lat="58.69839993305504" lon="16.452500950545073">
        <ele>95.37</ele>
        <time>2025-01-27T11:39:27.139Z</time>
      </trkpt>
      <trkpt lat="58.69824796915054" lon="16.452545961365104">
        <ele>95.49</ele>
        <time>2025-01-27T11:39:34.764Z</time>
      </trkpt>
      <trkpt lat="58.69813498109579" lon="16.453024987131357">
        <ele>95.62</ele>
        <time>2025-01-27T11:39:42.425Z</time>
      </trkpt>
      <trkpt lat="58.69814604520798" lon="16.453400664031506">
        <ele>95.78</ele>
        <time>2025-01-27T11:39:50.113Z</time>
      </trkpt>
      <trkpt lat="58.69814612902701" lon="16.453401166945696">
        <ele>95.9</ele>
        <time>2025-01-27T11:39:57.801Z</time>
      </trkpt>
      <trkpt lat="58.69814629666507" lon="16.45340627990663">
        <ele>96.05</ele>
        <time>2025-01-27T11:40:05.489Z</time>
      </trkpt>
      <trkpt lat="58.69814679957926" lon="16.453423211351037">
        <ele>96.23</ele>
        <time>2025-01-27T11:40:13.178Z</time>
      </trkpt>
      <trkpt lat="58.698146883398294" lon="16.45342329517007">
        <ele>96.43</ele>
        <time>2025-01-27T11:40:20.867Z</time>
      </trkpt>
      <trkpt lat="58.698146967217326" lon="16.4534233789891">
        <ele>96.65</ele>
        <time>2025-01-27T11:40:28.556Z</time>
      </trkpt>
      <trkpt lat="58.698146967217326" lon="16.453423211351037">
        <ele>96.89</ele>
        <time>2025-01-27T11:40:36.245Z</time>
      </trkpt>
      <trkpt lat="58.698146967217326" lon="16.45342279225588">
        <ele>97.14</ele>
        <time>2025-01-27T11:40:43.934Z</time>
      </trkpt>
      <trkpt lat="58.69815895333886" lon="16.453817998990417">
        <ele>97.41</ele>
        <time>2025-01-27T11:40:51.651Z</time>
      </trkpt>
      <trkpt lat="58.698146883398294" lon="16.454134499654174">
        <ele>97.7</ele>
        <time>2025-01-27T11:40:59.390Z</time>
      </trkpt>
      <trkpt lat="58.69813498109579" lon="16.45444898866117">
        <ele>98.07</ele>
        <time>2025-01-27T11:41:07.151Z</time>
      </trkpt>
      <trkpt lat="58.69820572435856" lon="16.454974617809057">
        <ele>98.35</ele>
        <time>2025-01-27T11:41:14.949Z</time>
      </trkpt>
      <trkpt lat="58.698275964707136" lon="16.455496978014708">
        <ele>98.7</ele>
        <time>2025-01-27T11:41:22.785Z</time>
      </trkpt>
      <trkpt lat="58.69827747344971" lon="16.4559895824641">
        <ele>99.0</ele>
        <time>2025-01-27T11:41:30.655Z</time>
      </trkpt>
      <trkpt lat="58.69827898219228" lon="16.456478917971253">
        <ele>99.31</ele>
        <time>2025-01-27T11:41:38.559Z</time>
      </trkpt>
      <trkpt lat="58.69822575710714" lon="16.456903964281082">
        <ele>99.62</ele>
        <time>2025-01-27T11:41:46.494Z</time>
      </trkpt>
      <trkpt lat="58.69817261584103" lon="16.45732901059091">
        <ele>100.01</ele>
        <time>2025-01-27T11:41:54.459Z</time>
      </trkpt>
      <trkpt lat="58.698119977489114" lon="16.457749949768186">
        <ele>100.32</ele>
        <time>2025-01-27T11:42:02.454Z</time>
      </trkpt>
      <trkpt lat="58.69813397526741" lon="16.45828572101891">
        <ele>100.61</ele>
        <time>2025-01-27T11:42:10.487Z</time>
      </trkpt>
      <trkpt lat="58.69814797304571" lon="16.458817971870303">
        <ele>100.9</ele>
        <time>2025-01-27T11:42:18.557Z</time>
      </trkpt>
      <trkpt lat="58.69806666858494" lon="16.459240252152085">
        <ele>101.21</ele>
        <time>2025-01-27T11:42:26.658Z</time>
      </trkpt>
      <trkpt lat="58.6979859508574" lon="16.459659934043884">
        <ele>101.51</ele>
        <time>2025-01-27T11:42:34.790Z</time>
      </trkpt>
      <trkpt lat="58.698014030233026" lon="16.46007265895605">
        <ele>101.79</ele>
        <time>2025-01-27T11:42:42.951Z</time>
      </trkpt>
      <trkpt lat="58.69804210960865" lon="16.460485300049186">
        <ele>102.05</ele>
        <time>2025-01-27T11:42:51.141Z</time>
      </trkpt>
      <trkpt lat="58.69806993752718" lon="16.4608939178288">
        <ele>102.35</ele>
        <time>2025-01-27T11:42:59.360Z</time>
      </trkpt>
      <trkpt lat="58.69793272577226" lon="16.461047222837806">
        <ele>102.67</ele>
        <time>2025-01-27T11:43:07.600Z</time>
      </trkpt>
      <trkpt lat="58.6977959331125" lon="16.46119994111359">
        <ele>102.95</ele>
        <time>2025-01-27T11:43:15.861Z</time>
      </trkpt>
      <trkpt lat="58.69760097004473" lon="16.461513927206397">
        <ele>103.21</ele>
        <time>2025-01-27T11:43:24.156Z</time>
      </trkpt>
      <trkpt lat="58.6974956933409" lon="16.461811736226082">
        <ele>103.48</ele>
        <time>2025-01-27T11:43:32.476Z</time>
      </trkpt>
      <trkpt lat="58.69739091955125" lon="16.462107952684164">
        <ele>103.76</ele>
        <time>2025-01-27T11:43:40.821Z</time>
      </trkpt>
      <trkpt lat="58.697328977286816" lon="16.462261928245425">
        <ele>104.02</ele>
        <time>2025-01-27T11:43:49.180Z</time>
      </trkpt>
      <trkpt lat="58.69721498340368" lon="16.462387992069125">
        <ele>104.26</ele>
        <time>2025-01-27T11:43:57.556Z</time>
      </trkpt>
      <trkpt lat="58.69706771336496" lon="16.462502656504512">
        <ele>104.49</ele>
        <time>2025-01-27T11:44:05.953Z</time>
      </trkpt>
      <trkpt lat="58.696920946240425" lon="16.46261698566377">
        <ele>104.68</ele>
        <time>2025-01-27T11:44:14.372Z</time>
      </trkpt>
      <trkpt lat="58.696758169680834" lon="16.462727626785636">
        <ele>104.83</ele>
        <time>2025-01-27T11:44:22.814Z</time>
      </trkpt>
      <trkpt lat="58.696595979854465" lon="16.462837932631373">
        <ele>104.95</ele>
        <time>2025-01-27T11:44:31.279Z</time>
      </trkpt>
      <trkpt lat="58.69635893963277" lon="16.463049994781613">
        <ele>104.98</ele>
        <time>2025-01-27T11:44:39.779Z</time>
      </trkpt>
      <trkpt lat="58.696170933544636" lon="16.463398933410645">
        <ele>104.96</ele>
        <time>2025-01-27T11:44:48.314Z</time>
      </trkpt>
      <trkpt lat="58.6960949935019" lon="16.46366992034018">
        <ele>104.86</ele>
        <time>2025-01-27T11:44:56.870Z</time>
      </trkpt>
      <trkpt lat="58.695953926071525" lon="16.463876953348517">
        <ele>104.63</ele>
        <time>2025-01-27T11:45:05.450Z</time>
      </trkpt>
      <trkpt lat="58.69576818309724" lon="16.463997652754188">
        <ele>104.32</ele>
        <time>2025-01-27T11:45:14.056Z</time>
      </trkpt>
      <trkpt lat="58.69558294303715" lon="16.4641179330647">
        <ele>103.98</ele>
        <time>2025-01-27T11:45:22.688Z</time>
      </trkpt>
      <trkpt lat="58.69545520283282" lon="16.464301832020283">
        <ele>103.63</ele>
        <time>2025-01-27T11:45:31.341Z</time>
      </trkpt>
      <trkpt lat="58.695327965542674" lon="16.46448497660458">
        <ele>103.14</ele>
        <time>2025-01-27T11:45:40.016Z</time>
      </trkpt>
      <trkpt lat="58.695092517882586" lon="16.46472042426467">
        <ele>102.61</ele>
        <time>2025-01-27T11:45:48.726Z</time>
      </trkpt>
      <trkpt lat="58.694857992231846" lon="16.46495494991541">
        <ele>101.98</ele>
        <time>2025-01-27T11:45:57.471Z</time>
      </trkpt>
      <trkpt lat="58.69478791952133" lon="16.464986968785524">
        <ele>101.31</ele>
        <time>2025-01-27T11:46:06.226Z</time>
      </trkpt>
      <trkpt lat="58.6946739256382" lon="16.465045977383852">
        <ele>100.56</ele>
        <time>2025-01-27T11:46:14.997Z</time>
      </trkpt>
      <trkpt lat="58.69448298588395" lon="16.465117977932096">
        <ele>99.72</ele>
        <time>2025-01-27T11:46:23.794Z</time>
      </trkpt>
      <trkpt lat="58.69441693648696" lon="16.465099956840277">
        <ele>99.0</ele>
        <time>2025-01-27T11:46:32.600Z</time>
      </trkpt>
      <trkpt lat="58.69422113522887" lon="16.465009851381183">
        <ele>98.21</ele>
        <time>2025-01-27T11:46:41.433Z</time>
      </trkpt>
      <trkpt lat="58.69402592070401" lon="16.464919997379184">
        <ele>97.51</ele>
        <time>2025-01-27T11:46:50.293Z</time>
      </trkpt>
      <trkpt lat="58.693871945142746" lon="16.4647619985044">
        <ele>96.85</ele>
        <time>2025-01-27T11:46:59.176Z</time>
      </trkpt>
      <trkpt lat="58.69371092878282" lon="16.464380957186222">
        <ele>96.26</ele>
        <time>2025-01-27T11:47:08.093Z</time>
      </trkpt>
      <trkpt lat="58.693629959598184" lon="16.46433494053781">
        <ele>95.76</ele>
        <time>2025-01-27T11:47:17.021Z</time>
      </trkpt>
      <trkpt lat="58.69353499263525" lon="16.464283978566527">
        <ele>95.35</ele>
        <time>2025-01-27T11:47:25.962Z</time>
      </trkpt>
      <trkpt lat="58.693351931869984" lon="16.464284984394908">
        <ele>94.99</ele>
        <time>2025-01-27T11:47:34.928Z</time>
      </trkpt>
      <trkpt lat="58.693151101469994" lon="16.46440668962896">
        <ele>94.68</ele>
        <time>2025-01-27T11:47:43.922Z</time>
      </trkpt>
      <trkpt lat="58.69295094162226" lon="16.46452797576785">
        <ele>94.54</ele>
        <time>2025-01-27T11:47:52.944Z</time>
      </trkpt>
      <trkpt lat="58.692776933312416" lon="16.464660996571183">
        <ele>94.46</ele>
        <time>2025-01-27T11:48:01.991Z</time>
      </trkpt>
      <trkpt lat="58.692597979679704" lon="16.464819917455316">
        <ele>94.48</ele>
        <time>2025-01-27T11:48:11.065Z</time>
      </trkpt>
      <trkpt lat="58.69241408072412" lon="16.46506693214178">
        <ele>94.67</ele>
        <time>2025-01-27T11:48:20.169Z</time>
      </trkpt>
      <trkpt lat="58.69223093613982" lon="16.465312940999866">
        <ele>95.0</ele>
        <time>2025-01-27T11:48:29.302Z</time>
      </trkpt>
      <trkpt lat="58.692193971946836" lon="16.465222919359803">
        <ele>95.4</ele>
        <time>2025-01-27T11:48:38.443Z</time>
      </trkpt>
      <trkpt lat="58.69214225560427" lon="16.46489040926099">
        <ele>95.96</ele>
        <time>2025-01-27T11:48:47.609Z</time>
      </trkpt>
      <trkpt lat="58.69209095835686" lon="16.464559994637966">
        <ele>96.64</ele>
        <time>2025-01-27T11:48:56.799Z</time>
      </trkpt>
      <trkpt lat="58.69194293394685" lon="16.46429294720292">
        <ele>97.36</ele>
        <time>2025-01-27T11:49:06.016Z</time>
      </trkpt>
      <trkpt lat="58.691846961155534" lon="16.46396999247372">
        <ele>98.05</ele>
        <time>2025-01-27T11:49:15.259Z</time>
      </trkpt>
      <trkpt lat="58.69162894785404" lon="16.463763965293765">
        <ele>98.68</ele>
        <time>2025-01-27T11:49:24.534Z</time>
      </trkpt>
      <trkpt lat="58.691478157415986" lon="16.46389271132648">
        <ele>99.2</ele>
        <time>2025-01-27T11:49:33.831Z</time>
      </trkpt>
      <trkpt lat="58.69132795371115" lon="16.464020954445004">
        <ele>99.69</ele>
        <time>2025-01-27T11:49:43.150Z</time>
      </trkpt>
      <trkpt lat="58.69115193374455" lon="16.463962951675057">
        <ele>100.19</ele>
        <time>2025-01-27T11:49:52.493Z</time>
      </trkpt>
      <trkpt lat="58.6909837089479" lon="16.46402657032013">
        <ele>100.57</ele>
        <time>2025-01-27T11:50:01.859Z</time>
      </trkpt>
      <trkpt lat="58.690815987065434" lon="16.464089937508106">
        <ele>100.87</ele>
        <time>2025-01-27T11:50:11.248Z</time>
      </trkpt>
      <trkpt lat="58.690645918250084" lon="16.46443996578455">
        <ele>100.94</ele>
        <time>2025-01-27T11:50:20.670Z</time>
      </trkpt>
      <trkpt lat="58.69051717221737" lon="16.46463241428137">
        <ele>100.87</ele>
        <time>2025-01-27T11:50:30.114Z</time>
      </trkpt>
      <trkpt lat="58.690388929098845" lon="16.464823940768838">
        <ele>100.68</ele>
        <time>2025-01-27T11:50:39.580Z</time>
      </trkpt>
      <trkpt lat="58.690580958500504" lon="16.465209927409887">
        <ele>100.39</ele>
        <time>2025-01-27T11:50:49.083Z</time>
      </trkpt>
      <trkpt lat="58.69052798487246" lon="16.46564695984125">
        <ele>99.98</ele>
        <time>2025-01-27T11:50:58.617Z</time>
      </trkpt>
      <trkpt lat="58.69029396213591" lon="16.465998999774456">
        <ele>99.52</ele>
        <time>2025-01-27T11:51:08.191Z</time>
      </trkpt>
      <trkpt lat="58.690142165869474" lon="16.466169822961092">
        <ele>99.04</ele>
        <time>2025-01-27T11:51:17.788Z</time>
      </trkpt>
      <trkpt lat="58.68999095633626" lon="16.466339975595474">
        <ele>98.59</ele>
        <time>2025-01-27T11:51:27.409Z</time>
      </trkpt>
      <trkpt lat="58.68973623029888" lon="16.466526640579104">
        <ele>98.16</ele>
        <time>2025-01-27T11:51:37.066Z</time>
      </trkpt>
      <trkpt lat="58.68948142044246" lon="16.466713221743703">
        <ele>97.78</ele>
        <time>2025-01-27T11:51:46.759Z</time>
      </trkpt>
      <trkpt lat="58.689227951690555" lon="16.466898964717984">
        <ele>97.54</ele>
        <time>2025-01-27T11:51:56.489Z</time>
      </trkpt>
      <trkpt lat="58.68909392505884" lon="16.46717196330428">
        <ele>97.21</ele>
        <time>2025-01-27T11:52:06.245Z</time>
      </trkpt>
      <trkpt lat="58.688950929790735" lon="16.467208927497268">
        <ele>97.04</ele>
        <time>2025-01-27T11:52:16.020Z</time>
      </trkpt>
      <trkpt lat="58.688904996961355" lon="16.467348989099264">
        <ele>96.73</ele>
        <time>2025-01-27T11:52:25.807Z</time>
      </trkpt>
      <trkpt lat="58.68868296034634" lon="16.467733969911933">
        <ele>96.5</ele>
        <time>2025-01-27T11:52:35.634Z</time>
      </trkpt>
      <trkpt lat="58.6884899251163" lon="16.468188939616084">
        <ele>96.25</ele>
        <time>2025-01-27T11:52:45.501Z</time>
      </trkpt>
      <trkpt lat="58.688337709754705" lon="16.468273093923926">
        <ele>95.97</ele>
        <time>2025-01-27T11:52:55.390Z</time>
      </trkpt>
      <trkpt lat="58.6881859973073" lon="16.468356996774673">
        <ele>95.66</ele>
        <time>2025-01-27T11:53:05.300Z</time>
      </trkpt>
      <trkpt lat="58.68814693763852" lon="16.468560928478837">
        <ele>95.26</ele>
        <time>2025-01-27T11:53:15.225Z</time>
      </trkpt>
      <trkpt lat="58.688023975118995" lon="16.468765949830413">
        <ele>94.91</ele>
        <time>2025-01-27T11:53:25.172Z</time>
      </trkpt>
      <trkpt lat="58.6878130864352" lon="16.468928726390004">
        <ele>94.47</ele>
        <time>2025-01-27T11:53:35.149Z</time>
      </trkpt>
      <trkpt lat="58.68760295212269" lon="16.469090916216373">
        <ele>94.09</ele>
        <time>2025-01-27T11:53:45.156Z</time>
      </trkpt>
      <trkpt lat="58.687438583001494" lon="16.469421749934554">
        <ele>93.58</ele>
        <time>2025-01-27T11:53:55.195Z</time>
      </trkpt>
      <trkpt lat="58.687274968251586" lon="16.469750991091132">
        <ele>93.09</ele>
        <time>2025-01-27T11:54:05.266Z</time>
      </trkpt>
      <trkpt lat="58.68711596354842" lon="16.469945954158902">
        <ele>92.6</ele>
        <time>2025-01-27T11:54:15.362Z</time>
      </trkpt>
      <trkpt lat="58.68702694773674" lon="16.47019498050213">
        <ele>92.2</ele>
        <time>2025-01-27T11:54:25.479Z</time>
      </trkpt>
      <trkpt lat="58.68683651089668" lon="16.470502177253366">
        <ele>91.79</ele>
        <time>2025-01-27T11:54:35.629Z</time>
      </trkpt>
      <trkpt lat="58.686726205050945" lon="16.470679957419634">
        <ele>91.51</ele>
        <time>2025-01-27T11:54:45.799Z</time>
      </trkpt>
      <trkpt lat="58.68664934299886" lon="16.470804009586573">
        <ele>91.38</ele>
        <time>2025-01-27T11:54:55.982Z</time>
      </trkpt>
      <trkpt lat="58.686646996065974" lon="16.470807949081063">
        <ele>91.41</ele>
        <time>2025-01-27T11:55:06.165Z</time>
      </trkpt>
      <trkpt lat="58.68662956170738" lon="16.47078523412347">
        <ele>91.55</ele>
        <time>2025-01-27T11:55:16.351Z</time>
      </trkpt>
      <trkpt lat="58.686515148729086" lon="16.470636120066047">
        <ele>91.82</ele>
        <time>2025-01-27T11:55:26.556Z</time>
      </trkpt>
      <trkpt lat="58.68638397194445" lon="16.470464961603284">
        <ele>92.23</ele>
        <time>2025-01-27T11:55:36.782Z</time>
      </trkpt>
      <trkpt lat="58.686133939772844" lon="16.470188945531845">
        <ele>92.78</ele>
        <time>2025-01-27T11:55:47.046Z</time>
      </trkpt>
      <trkpt lat="58.68582992814481" lon="16.470203949138522">
        <ele>93.43</ele>
        <time>2025-01-27T11:55:57.351Z</time>
      </trkpt>
      <trkpt lat="58.685639994218946" lon="16.470138989388943">
        <ele>94.14</ele>
        <time>2025-01-27T11:56:07.682Z</time>
      </trkpt>
      <trkpt lat="58.685444947332144" lon="16.470289947465062">
        <ele>94.86</ele>
        <time>2025-01-27T11:56:18.041Z</time>
      </trkpt>
      <trkpt lat="58.68524394929409" lon="16.470181988552213">
        <ele>95.76</ele>
        <time>2025-01-27T11:56:28.428Z</time>
      </trkpt>
      <trkpt lat="58.68505971506238" lon="16.47011736407876">
        <ele>96.74</ele>
        <time>2025-01-27T11:56:38.840Z</time>
      </trkpt>
      <trkpt lat="58.68487598374486" lon="16.470052991062403">
        <ele>97.69</ele>
        <time>2025-01-27T11:56:49.277Z</time>
      </trkpt>
      <trkpt lat="58.684585466980934" lon="16.470284331589937">
        <ele>98.55</ele>
        <time>2025-01-27T11:56:59.756Z</time>
      </trkpt>
      <trkpt lat="58.68429595604539" lon="16.470514917746186">
        <ele>99.25</ele>
        <time>2025-01-27T11:57:10.277Z</time>
      </trkpt>
      <trkpt lat="58.68412563577294" lon="16.47065967321396">
        <ele>99.75</ele>
        <time>2025-01-27T11:57:20.823Z</time>
      </trkpt>
      <trkpt lat="58.68395598605275" lon="16.47080392576754">
        <ele>100.13</ele>
        <time>2025-01-27T11:57:31.393Z</time>
      </trkpt>
      <trkpt lat="58.68374928832054" lon="16.470922445878386">
        <ele>100.36</ele>
        <time>2025-01-27T11:57:41.992Z</time>
      </trkpt>
      <trkpt lat="58.68354259058833" lon="16.471041049808264">
        <ele>100.55</ele>
        <time>2025-01-27T11:57:52.620Z</time>
      </trkpt>
      <trkpt lat="58.68333698250353" lon="16.471158983185887">
        <ele>100.61</ele>
        <time>2025-01-27T11:58:03.277Z</time>
      </trkpt>
      <trkpt lat="58.68313464336097" lon="16.47124112583697">
        <ele>100.64</ele>
        <time>2025-01-27T11:58:13.961Z</time>
      </trkpt>
      <trkpt lat="58.682932974770665" lon="16.471322933211923">
        <ele>100.61</ele>
        <time>2025-01-27T11:58:24.673Z</time>
      </trkpt>
      <trkpt lat="58.682804983109236" lon="16.47127096541226">
        <ele>100.59</ele>
        <time>2025-01-27T11:58:35.403Z</time>
      </trkpt>
      <trkpt lat="58.68263223208487" lon="16.47123542614281">
        <ele>100.49</ele>
        <time>2025-01-27T11:58:46.156Z</time>
      </trkpt>
      <trkpt lat="58.682459983974695" lon="16.471199970692396">
        <ele>100.37</ele>
        <time>2025-01-27T11:58:56.932Z</time>
      </trkpt>
      <trkpt lat="58.68218606337905" lon="16.471098801121116">
        <ele>100.32</ele>
        <time>2025-01-27T11:59:07.745Z</time>
      </trkpt>
      <trkpt lat="58.68191298097372" lon="16.470997966825962">
        <ele>100.28</ele>
        <time>2025-01-27T11:59:18.595Z</time>
      </trkpt>
      <trkpt lat="58.681963942945" lon="16.47140096873045">
        <ele>99.95</ele>
        <time>2025-01-27T11:59:29.474Z</time>
      </trkpt>
      <trkpt lat="58.68187869898975" lon="16.471733395010233">
        <ele>99.72</ele>
        <time>2025-01-27T11:59:40.379Z</time>
      </trkpt>
      <trkpt lat="58.681835029274225" lon="16.471903463825583">
        <ele>99.64</ele>
        <time>2025-01-27T11:59:51.297Z</time>
      </trkpt>
      <trkpt lat="58.681793957948685" lon="16.47206397727132">
        <ele>99.55</ele>
        <time>2025-01-27T12:00:02.228Z</time>
      </trkpt>
      <trkpt lat="58.68173696100712" lon="16.47219892591238">
        <ele>99.5</ele>
        <time>2025-01-27T12:00:13.171Z</time>
      </trkpt>
      <trkpt lat="58.681469997391105" lon="16.472360948100686">
        <ele>99.67</ele>
        <time>2025-01-27T12:00:24.151Z</time>
      </trkpt>
      <trkpt lat="58.681167997419834" lon="16.47237092256546">
        <ele>99.87</ele>
        <time>2025-01-27T12:00:35.172Z</time>
      </trkpt>
      <trkpt lat="58.681085938587785" lon="16.472313925623894">
        <ele>100.04</ele>
        <time>2025-01-27T12:00:46.204Z</time>
      </trkpt>
      <trkpt lat="58.68092098273337" lon="16.472531938925385">
        <ele>100.18</ele>
        <time>2025-01-27T12:00:57.263Z</time>
      </trkpt>
      <trkpt lat="58.68076767772436" lon="16.472676694393158">
        <ele>100.33</ele>
        <time>2025-01-27T12:01:08.345Z</time>
      </trkpt>
      <trkpt lat="58.680614959448576" lon="16.47282094694674">
        <ele>100.54</ele>
        <time>2025-01-27T12:01:19.450Z</time>
      </trkpt>
      <trkpt lat="58.68043868802488" lon="16.472874507308006">
        <ele>100.88</ele>
        <time>2025-01-27T12:01:30.578Z</time>
      </trkpt>
      <trkpt lat="58.68026291951537" lon="16.47292798385024">
        <ele>101.2</ele>
        <time>2025-01-27T12:01:41.730Z</time>
      </trkpt>
      <trkpt lat="58.680150937289" lon="16.472877943888307">
        <ele>101.58</ele>
        <time>2025-01-27T12:01:52.898Z</time>
      </trkpt>
      <trkpt lat="58.67986897006631" lon="16.47268993780017">
        <ele>102.08</ele>
        <time>2025-01-27T12:02:04.105Z</time>
      </trkpt>
      <trkpt lat="58.679706947878" lon="16.47256496362388">
        <ele>102.52</ele>
        <time>2025-01-27T12:02:15.336Z</time>
      </trkpt>
      <trkpt lat="58.6796519625932" lon="16.472417945042253">
        <ele>102.94</ele>
        <time>2025-01-27T12:02:26.579Z</time>
      </trkpt>
      <trkpt lat="58.67959278635681" lon="16.47205534391105">
        <ele>103.36</ele>
        <time>2025-01-27T12:02:37.849Z</time>
      </trkpt>
      <trkpt lat="58.67953394539654" lon="16.471694922074676">
        <ele>103.71</ele>
        <time>2025-01-27T12:02:49.145Z</time>
      </trkpt>
      <trkpt lat="58.67946395650506" lon="16.471394933760166">
        <ele>104.02</ele>
        <time>2025-01-27T12:03:00.464Z</time>
      </trkpt>
      <trkpt lat="58.67922096513212" lon="16.471361992880702">
        <ele>104.3</ele>
        <time>2025-01-27T12:03:11.816Z</time>
      </trkpt>
      <trkpt lat="58.67905994877219" lon="16.471222937107086">
        <ele>104.58</ele>
        <time>2025-01-27T12:03:23.191Z</time>
      </trkpt>
      <trkpt lat="58.678804971277714" lon="16.471301978453994">
        <ele>104.79</ele>
        <time>2025-01-27T12:03:34.601Z</time>
      </trkpt>
      <trkpt lat="58.678752249106765" lon="16.471365429461002">
        <ele>104.9</ele>
        <time>2025-01-27T12:03:46.019Z</time>
      </trkpt>
      <trkpt lat="58.6787520814687" lon="16.47136576473713">
        <ele>104.98</ele>
        <time>2025-01-27T12:03:57.437Z</time>
      </trkpt>
      <trkpt lat="58.6787520814687" lon="16.47136584855616">
        <ele>105.01</ele>
        <time>2025-01-27T12:04:08.855Z</time>
      </trkpt>
      <trkpt lat="58.678749818354845" lon="16.47136869840324">
        <ele>104.97</ele>
        <time>2025-01-27T12:04:20.273Z</time>
      </trkpt>
      <trkpt lat="58.678742023184896" lon="16.471378253772855">
        <ele>104.87</ele>
        <time>2025-01-27T12:04:31.693Z</time>
      </trkpt>
      <trkpt lat="58.678742023184896" lon="16.471378337591887">
        <ele>104.71</ele>
        <time>2025-01-27T12:04:43.113Z</time>
      </trkpt>
      <trkpt lat="58.678741939365864" lon="16.47137850522995">
        <ele>104.49</ele>
        <time>2025-01-27T12:04:54.533Z</time>
      </trkpt>
      <trkpt lat="58.678741939365864" lon="16.471378672868013">
        <ele>104.22</ele>
        <time>2025-01-27T12:05:05.953Z</time>
      </trkpt>
      <trkpt lat="58.67874185554683" lon="16.47137892432511">
        <ele>103.88</ele>
        <time>2025-01-27T12:05:17.373Z</time>
      </trkpt>
      <trkpt lat="58.678741939365864" lon="16.47137892432511">
        <ele>103.5</ele>
        <time>2025-01-27T12:05:28.793Z</time>
      </trkpt>
      <trkpt lat="58.67874168790877" lon="16.471379175782204">
        <ele>103.06</ele>
        <time>2025-01-27T12:05:40.213Z</time>
      </trkpt>
      <trkpt lat="58.67861897684634" lon="16.47159794345498">
        <ele>102.5</ele>
        <time>2025-01-27T12:05:51.655Z</time>
      </trkpt>
      <trkpt lat="58.67842518724501" lon="16.47167555987835">
        <ele>101.92</ele>
        <time>2025-01-27T12:06:03.124Z</time>
      </trkpt>
      <trkpt lat="58.67823198437691" lon="16.471752924844623">
        <ele>101.33</ele>
        <time>2025-01-27T12:06:14.619Z</time>
      </trkpt>
      <trkpt lat="58.678161995485425" lon="16.471780920401216">
        <ele>100.79</ele>
        <time>2025-01-27T12:06:26.124Z</time>
      </trkpt>
      <trkpt lat="58.677990920841694" lon="16.471950989216566">
        <ele>100.22</ele>
        <time>2025-01-27T12:06:37.654Z</time>
      </trkpt>
      <trkpt lat="58.67786913178861" lon="16.4722100738436">
        <ele>99.6</ele>
        <time>2025-01-27T12:06:49.209Z</time>
      </trkpt>
      <trkpt lat="58.67774792946875" lon="16.472467985004187">
        <ele>99.03</ele>
        <time>2025-01-27T12:07:00.788Z</time>
      </trkpt>
      <trkpt lat="58.67757895030081" lon="16.47271692752838">
        <ele>98.51</ele>
        <time>2025-01-27T12:07:12.395Z</time>
      </trkpt>
      <trkpt lat="58.67745263502002" lon="16.472978107631207">
        <ele>98.05</ele>
        <time>2025-01-27T12:07:24.027Z</time>
      </trkpt>
      <trkpt lat="58.677326990291476" lon="16.473237946629524">
        <ele>97.6</ele>
        <time>2025-01-27T12:07:35.684Z</time>
      </trkpt>
      <trkpt lat="58.6771219689399" lon="16.47335596382618">
        <ele>97.34</ele>
        <time>2025-01-27T12:07:47.369Z</time>
      </trkpt>
      <trkpt lat="58.67687093093991" lon="16.4736139588058">
        <ele>97.12</ele>
        <time>2025-01-27T12:07:59.092Z</time>
      </trkpt>
      <trkpt lat="58.676763977855444" lon="16.473995922133327">
        <ele>96.86</ele>
        <time>2025-01-27T12:08:10.846Z</time>
      </trkpt>
      <trkpt lat="58.67679691873491" lon="16.47439196705818">
        <ele>96.65</ele>
        <time>2025-01-27T12:08:22.628Z</time>
      </trkpt>
      <trkpt lat="58.676865650340915" lon="16.47482430562377">
        <ele>96.56</ele>
        <time>2025-01-27T12:08:34.441Z</time>
      </trkpt>
      <trkpt lat="58.67693396285176" lon="16.475253961980343">
        <ele>96.58</ele>
        <time>2025-01-27T12:08:46.285Z</time>
      </trkpt>
      <trkpt lat="58.67705172859132" lon="16.475534169003367">
        <ele>96.63</ele>
        <time>2025-01-27T12:08:58.154Z</time>
      </trkpt>
      <trkpt lat="58.67716899141669" lon="16.475812951102853">
        <ele>96.73</ele>
        <time>2025-01-27T12:09:10.048Z</time>
      </trkpt>
      <trkpt lat="58.67719296365976" lon="16.4760609716177">
        <ele>96.82</ele>
        <time>2025-01-27T12:09:21.960Z</time>
      </trkpt>
      <trkpt lat="58.677304945886135" lon="16.47610598243773">
        <ele>96.86</ele>
        <time>2025-01-27T12:09:33.887Z</time>
      </trkpt>
      <trkpt lat="58.677342999726534" lon="16.476207990199327">
        <ele>96.88</ele>
        <time>2025-01-27T12:09:45.823Z</time>
      </trkpt>
      <trkpt lat="58.67751826532185" lon="16.47629507817328">
        <ele>96.87</ele>
        <time>2025-01-27T12:09:57.783Z</time>
      </trkpt>
      <trkpt lat="58.677692944183946" lon="16.47638199850917">
        <ele>96.8</ele>
        <time>2025-01-27T12:10:09.767Z</time>
      </trkpt>
      <trkpt lat="58.67776796221733" lon="16.476489957422018">
        <ele>96.68</ele>
        <time>2025-01-27T12:10:21.764Z</time>
      </trkpt>
      <trkpt lat="58.67789494805038" lon="16.476542931050062">
        <ele>96.48</ele>
        <time>2025-01-27T12:10:33.778Z</time>
      </trkpt>
      <trkpt lat="58.67805998772383" lon="16.47647093050182">
        <ele>96.25</ele>
        <time>2025-01-27T12:10:45.815Z</time>
      </trkpt>
      <trkpt lat="58.678295938298106" lon="16.476570926606655">
        <ele>95.89</ele>
        <time>2025-01-27T12:10:57.884Z</time>
      </trkpt>
      <trkpt lat="58.678442956879735" lon="16.476594982668757">
        <ele>95.49</ele>
        <time>2025-01-27T12:11:09.973Z</time>
      </trkpt>
      <trkpt lat="58.67855695076287" lon="16.47679396905005">
        <ele>95.02</ele>
        <time>2025-01-27T12:11:22.082Z</time>
      </trkpt>
      <trkpt lat="58.6785829346627" lon="16.47692497819662">
        <ele>94.59</ele>
        <time>2025-01-27T12:11:34.201Z</time>
      </trkpt>
      <trkpt lat="58.678591987118125" lon="16.47696697153151">
        <ele>94.17</ele>
        <time>2025-01-27T12:11:46.323Z</time>
      </trkpt>
      <trkpt lat="58.67864194326103" lon="16.477218931540847">
        <ele>93.72</ele>
        <time>2025-01-27T12:11:58.464Z</time>
      </trkpt>
      <trkpt lat="58.678917372599244" lon="16.477271066978574">
        <ele>93.18</ele>
        <time>2025-01-27T12:12:10.642Z</time>
      </trkpt>
      <trkpt lat="58.679191963747144" lon="16.477322950959206">
        <ele>92.65</ele>
        <time>2025-01-27T12:12:22.857Z</time>
      </trkpt>
      <trkpt lat="58.67924694903195" lon="16.477298978716135">
        <ele>92.25</ele>
        <time>2025-01-27T12:12:35.079Z</time>
      </trkpt>
      <trkpt lat="58.67935691960156" lon="16.477297972887754">
        <ele>91.88</ele>
        <time>2025-01-27T12:12:47.316Z</time>
      </trkpt>
      <trkpt lat="58.67960091680288" lon="16.47741892375052">
        <ele>91.6</ele>
        <time>2025-01-27T12:12:59.587Z</time>
      </trkpt>
      <trkpt lat="58.679765202105045" lon="16.477576587349176">
        <ele>91.4</ele>
        <time>2025-01-27T12:13:11.882Z</time>
      </trkpt>
      <trkpt lat="58.67982597090304" lon="16.47763492539525">
        <ele>91.18</ele>
        <time>2025-01-27T12:13:24.186Z</time>
      </trkpt>
      <trkpt lat="58.68008094839752" lon="16.477820919826627">
        <ele>91.0</ele>
        <time>2025-01-27T12:13:36.527Z</time>
      </trkpt>
      <trkpt lat="58.68022025562823" lon="16.47802392952144">
        <ele>90.87</ele>
        <time>2025-01-27T12:13:48.891Z</time>
      </trkpt>
      <trkpt lat="58.68035897612572" lon="16.478225933387876">
        <ele>90.72</ele>
        <time>2025-01-27T12:14:01.279Z</time>
      </trkpt>
      <trkpt lat="58.680515298619866" lon="16.478404803201556">
        <ele>90.57</ele>
        <time>2025-01-27T12:14:13.691Z</time>
      </trkpt>
      <trkpt lat="58.68067095056176" lon="16.47858291864395">
        <ele>90.47</ele>
        <time>2025-01-27T12:14:26.127Z</time>
      </trkpt>
      <trkpt lat="58.680822998285294" lon="16.47881199605763">
        <ele>90.36</ele>
        <time>2025-01-27T12:14:38.589Z</time>
      </trkpt>
      <trkpt lat="58.68085887283087" lon="16.478950968012214">
        <ele>90.39</ele>
        <time>2025-01-27T12:14:51.062Z</time>
      </trkpt>
      <trkpt lat="58.68086691945791" lon="16.47898198105395">
        <ele>90.47</ele>
        <time>2025-01-27T12:15:03.537Z</time>
      </trkpt>
      <trkpt lat="58.680872954428196" lon="16.479085916653275">
        <ele>90.6</ele>
        <time>2025-01-27T12:15:16.019Z</time>
      </trkpt>
      <trkpt lat="58.680847976356745" lon="16.47941892966628">
        <ele>90.79</ele>
        <time>2025-01-27T12:15:28.525Z</time>
      </trkpt>
      <trkpt lat="58.68068595416844" lon="16.47984598763287">
        <ele>91.11</ele>
        <time>2025-01-27T12:15:41.068Z</time>
      </trkpt>
      <trkpt lat="58.68070296943188" lon="16.480035921558738">
        <ele>91.3</ele>
        <time>2025-01-27T12:15:53.624Z</time>
      </trkpt>
      <trkpt lat="58.68079894222319" lon="16.480258964002132">
        <ele>91.44</ele>
        <time>2025-01-27T12:16:06.200Z</time>
      </trkpt>
      <trkpt lat="58.68100899271667" lon="16.480657942593098">
        <ele>91.68</ele>
        <time>2025-01-27T12:16:18.816Z</time>
      </trkpt>
      <trkpt lat="58.68114234879613" lon="16.481059351935983">
        <ele>92.01</ele>
        <time>2025-01-27T12:16:31.465Z</time>
      </trkpt>
      <trkpt lat="58.68127570487559" lon="16.4814608450979">
        <ele>92.25</ele>
        <time>2025-01-27T12:16:44.147Z</time>
      </trkpt>
      <trkpt lat="58.681407971307635" lon="16.481858985498548">
        <ele>92.43</ele>
        <time>2025-01-27T12:16:56.862Z</time>
      </trkpt>
      <trkpt lat="58.68150578811765" lon="16.482288222759962">
        <ele>92.61</ele>
        <time>2025-01-27T12:17:09.609Z</time>
      </trkpt>
      <trkpt lat="58.681602934375405" lon="16.482714945450425">
        <ele>92.79</ele>
        <time>2025-01-27T12:17:22.389Z</time>
      </trkpt>
      <trkpt lat="58.68165163323283" lon="16.483003869652748">
        <ele>92.97</ele>
        <time>2025-01-27T12:17:35.190Z</time>
      </trkpt>
      <trkpt lat="58.68169999681413" lon="16.483290949836373">
        <ele>93.14</ele>
        <time>2025-01-27T12:17:48.012Z</time>
      </trkpt>
      <trkpt lat="58.68175917305052" lon="16.4835883397609">
        <ele>93.27</ele>
        <time>2025-01-27T12:18:00.856Z</time>
      </trkpt>
      <trkpt lat="58.681817930191755" lon="16.48388396948576">
        <ele>93.38</ele>
        <time>2025-01-27T12:18:13.722Z</time>
      </trkpt>
      <trkpt lat="58.68184491991997" lon="16.48437598720193">
        <ele>93.5</ele>
        <time>2025-01-27T12:18:26.623Z</time>
      </trkpt>
      <trkpt lat="58.68187098763883" lon="16.484579918906093">
        <ele>93.53</ele>
        <time>2025-01-27T12:18:39.538Z</time>
      </trkpt>
      <trkpt lat="58.681857995688915" lon="16.48496096022427">
        <ele>93.56</ele>
        <time>2025-01-27T12:18:52.480Z</time>
      </trkpt>
      <trkpt lat="58.68188791908324" lon="16.48515097796917">
        <ele>93.48</ele>
        <time>2025-01-27T12:19:05.436Z</time>
      </trkpt>
      <trkpt lat="58.6819779407233" lon="16.485425988212228">
        <ele>93.32</ele>
        <time>2025-01-27T12:19:18.414Z</time>
      </trkpt>
      <trkpt lat="58.68212998844683" lon="16.485829995945096">
        <ele>93.07</ele>
        <time>2025-01-27T12:19:31.427Z</time>
      </trkpt>
      <trkpt lat="58.68224029429257" lon="16.486268201842904">
        <ele>92.87</ele>
        <time>2025-01-27T12:19:44.474Z</time>
      </trkpt>
      <trkpt lat="58.68234992958605" lon="16.486703976988792">
        <ele>92.61</ele>
        <time>2025-01-27T12:19:57.555Z</time>
      </trkpt>
      <trkpt lat="58.68251798674464" lon="16.487090969458222">
        <ele>92.21</ele>
        <time>2025-01-27T12:20:10.671Z</time>
      </trkpt>
      <trkpt lat="58.68267020210624" lon="16.487210663035512">
        <ele>91.76</ele>
        <time>2025-01-27T12:20:23.809Z</time>
      </trkpt>
      <trkpt lat="58.682821998372674" lon="16.487329937517643">
        <ele>91.25</ele>
        <time>2025-01-27T12:20:36.968Z</time>
      </trkpt>
      <trkpt lat="58.68305794894695" lon="16.48759799078107">
        <ele>90.64</ele>
        <time>2025-01-27T12:20:50.164Z</time>
      </trkpt>
      <trkpt lat="58.68324494920671" lon="16.488013984635472">
        <ele>90.04</ele>
        <time>2025-01-27T12:21:03.398Z</time>
      </trkpt>
      <trkpt lat="58.68342633359134" lon="16.488219844177365">
        <ele>89.53</ele>
        <time>2025-01-27T12:21:16.661Z</time>
      </trkpt>
      <trkpt lat="58.68360696360469" lon="16.488424949347973">
        <ele>89.11</ele>
        <time>2025-01-27T12:21:29.952Z</time>
      </trkpt>
      <trkpt lat="58.68354896083474" lon="16.48857096210122">
        <ele>88.6</ele>
        <time>2025-01-27T12:21:43.255Z</time>
      </trkpt>
      <trkpt lat="58.68338702246547" lon="16.488931383937597">
        <ele>88.11</ele>
        <time>2025-01-27T12:21:56.592Z</time>
      </trkpt>
      <trkpt lat="58.68322592228651" lon="16.489289961755276">
        <ele>87.76</ele>
        <time>2025-01-27T12:22:09.961Z</time>
      </trkpt>
      <trkpt lat="58.683139169588685" lon="16.489666560664773">
        <ele>87.46</ele>
        <time>2025-01-27T12:22:23.359Z</time>
      </trkpt>
      <trkpt lat="58.68305291980505" lon="16.490040980279446">
        <ele>87.23</ele>
        <time>2025-01-27T12:22:36.786Z</time>
      </trkpt>
      <trkpt lat="58.68288058787584" lon="16.4903611689806">
        <ele>87.06</ele>
        <time>2025-01-27T12:22:50.245Z</time>
      </trkpt>
      <trkpt lat="58.68270892649889" lon="16.490679932758212">
        <ele>86.96</ele>
        <time>2025-01-27T12:23:03.736Z</time>
      </trkpt>
      <trkpt lat="58.682560650631785" lon="16.49083625525236">
        <ele>86.93</ele>
        <time>2025-01-27T12:23:17.249Z</time>
      </trkpt>
      <trkpt lat="58.6824129614979" lon="16.49099199101329">
        <ele>86.99</ele>
        <time>2025-01-27T12:23:30.785Z</time>
      </trkpt>
      <trkpt lat="58.68221992626786" lon="16.491346964612603">
        <ele>87.09</ele>
        <time>2025-01-27T12:23:44.356Z</time>
      </trkpt>
      <trkpt lat="58.68203996680677" lon="16.491757510229945">
        <ele>87.31</ele>
        <time>2025-01-27T12:23:57.965Z</time>
      </trkpt>
      <trkpt lat="58.681860929355025" lon="16.492165960371494">
        <ele>87.53</ele>
        <time>2025-01-27T12:24:11.611Z</time>
      </trkpt>
      <trkpt lat="58.681678706780076" lon="16.492596035823226">
        <ele>87.81</ele>
        <time>2025-01-27T12:24:25.296Z</time>
      </trkpt>
      <trkpt lat="58.68149656802416" lon="16.49302619509399">
        <ele>88.14</ele>
        <time>2025-01-27T12:24:39.019Z</time>
      </trkpt>
      <trkpt lat="58.68131434544921" lon="16.49345627054572">
        <ele>88.52</ele>
        <time>2025-01-27T12:24:52.781Z</time>
      </trkpt>
      <trkpt lat="58.68113396689296" lon="16.493881987407804">
        <ele>89.0</ele>
        <time>2025-01-27T12:25:06.581Z</time>
      </trkpt>
      <trkpt lat="58.68096197023988" lon="16.494364952668548">
        <ele>89.51</ele>
        <time>2025-01-27T12:25:20.422Z</time>
      </trkpt>
      <trkpt lat="58.68088921532035" lon="16.494704000651836">
        <ele>89.96</ele>
        <time>2025-01-27T12:25:34.288Z</time>
      </trkpt>
      <trkpt lat="58.68081696331501" lon="16.495040953159332">
        <ele>90.42</ele>
        <time>2025-01-27T12:25:48.180Z</time>
      </trkpt>
      <trkpt lat="58.68072467856109" lon="16.495331302285194">
        <ele>90.89</ele>
        <time>2025-01-27T12:26:02.095Z</time>
      </trkpt>
      <trkpt lat="58.680632980540395" lon="16.495619975030422">
        <ele>91.36</ele>
        <time>2025-01-27T12:26:16.034Z</time>
      </trkpt>
      <trkpt lat="58.68053466081619" lon="16.495953407138586">
        <ele>91.86</ele>
        <time>2025-01-27T12:26:29.999Z</time>
      </trkpt>
      <trkpt lat="58.68043692782521" lon="16.496284995228052">
        <ele>92.36</ele>
        <time>2025-01-27T12:26:43.991Z</time>
      </trkpt>
      <trkpt lat="58.68034296669066" lon="16.496639968827367">
        <ele>92.8</ele>
        <time>2025-01-27T12:26:58.011Z</time>
      </trkpt>
      <trkpt lat="58.680253364145756" lon="16.497113378718495">
        <ele>93.14</ele>
        <time>2025-01-27T12:27:12.066Z</time>
      </trkpt>
      <trkpt lat="58.68016376160085" lon="16.497586872428656">
        <ele>93.44</ele>
        <time>2025-01-27T12:27:26.156Z</time>
      </trkpt>
      <trkpt lat="58.680074997246265" lon="16.498055923730135">
        <ele>93.68</ele>
        <time>2025-01-27T12:27:40.281Z</time>
      </trkpt>
      <trkpt lat="58.68000794202089" lon="16.49845297448337">
        <ele>93.85</ele>
        <time>2025-01-27T12:27:54.435Z</time>
      </trkpt>
      <trkpt lat="58.67995195090771" lon="16.499042976647615">
        <ele>93.99</ele>
        <time>2025-01-27T12:28:08.630Z</time>
      </trkpt>
      <trkpt lat="58.67984315380454" lon="16.49928504601121">
        <ele>93.87</ele>
        <time>2025-01-27T12:28:22.848Z</time>
      </trkpt>
      <trkpt lat="58.679734943434596" lon="16.49952594190836">
        <ele>93.73</ele>
        <time>2025-01-27T12:28:37.088Z</time>
      </trkpt>
      <trkpt lat="58.6795481108129" lon="16.499951826408505">
        <ele>93.44</ele>
        <time>2025-01-27T12:28:51.367Z</time>
      </trkpt>
      <trkpt lat="58.67936119437218" lon="16.50037771090865">
        <ele>93.13</ele>
        <time>2025-01-27T12:29:05.684Z</time>
      </trkpt>
      <trkpt lat="58.67917436175048" lon="16.500803595408797">
        <ele>92.8</ele>
        <time>2025-01-27T12:29:20.040Z</time>
      </trkpt>
      <trkpt lat="58.67898744530976" lon="16.501229479908943">
        <ele>92.62</ele>
        <time>2025-01-27T12:29:34.435Z</time>
      </trkpt>
      <trkpt lat="58.67880295962095" lon="16.50164999999106">
        <ele>92.6</ele>
        <time>2025-01-27T12:29:48.868Z</time>
      </trkpt>
      <trkpt lat="58.678741939365864" lon="16.502046966925263">
        <ele>92.63</ele>
        <time>2025-01-27T12:30:03.330Z</time>
      </trkpt>
      <trkpt lat="58.67866398766637" lon="16.502142939716578">
        <ele>92.7</ele>
        <time>2025-01-27T12:30:17.804Z</time>
      </trkpt>
      <trkpt lat="58.678659964352846" lon="16.502227932214737">
        <ele>92.82</ele>
        <time>2025-01-27T12:30:32.284Z</time>
      </trkpt>
      <trkpt lat="58.678614953532815" lon="16.50234393775463">
        <ele>93.03</ele>
        <time>2025-01-27T12:30:46.774Z</time>
      </trkpt>
      <trkpt lat="58.67856298573315" lon="16.502486933022738">
        <ele>93.33</ele>
        <time>2025-01-27T12:31:01.276Z</time>
      </trkpt>
      <trkpt lat="58.67845796048641" lon="16.502593969926238">
        <ele>93.75</ele>
        <time>2025-01-27T12:31:15.794Z</time>
      </trkpt>
      <trkpt lat="58.6781579721719" lon="16.502568991854787">
        <ele>94.3</ele>
        <time>2025-01-27T12:31:30.352Z</time>
      </trkpt>
      <trkpt lat="58.6778609175235" lon="16.502625988796353">
        <ele>94.88</ele>
        <time>2025-01-27T12:31:44.950Z</time>
      </trkpt>
      <trkpt lat="58.67766494862735" lon="16.502754986286163">
        <ele>95.5</ele>
        <time>2025-01-27T12:31:59.576Z</time>
      </trkpt>
      <trkpt lat="58.67748691700399" lon="16.502775941044092">
        <ele>96.08</ele>
        <time>2025-01-27T12:32:14.226Z</time>
      </trkpt>
      <trkpt lat="58.67728994227946" lon="16.502994960173965">
        <ele>96.68</ele>
        <time>2025-01-27T12:32:28.906Z</time>
      </trkpt>
      <trkpt lat="58.67717997170985" lon="16.502990936860442">
        <ele>97.32</ele>
        <time>2025-01-27T12:32:43.601Z</time>
      </trkpt>
      <trkpt lat="58.676984924823046" lon="16.50313393212855">
        <ele>98.07</ele>
        <time>2025-01-27T12:32:58.324Z</time>
      </trkpt>
      <trkpt lat="58.67675509303808" lon="16.50321456603706">
        <ele>98.82</ele>
        <time>2025-01-27T12:33:13.078Z</time>
      </trkpt>
      <trkpt lat="58.67652593180537" lon="16.503294948488474">
        <ele>99.52</ele>
        <time>2025-01-27T12:33:27.863Z</time>
      </trkpt>
      <trkpt lat="58.67624094709754" lon="16.503519918769598">
        <ele>100.24</ele>
        <time>2025-01-27T12:33:42.690Z</time>
      </trkpt>
      <trkpt lat="58.67598496377468" lon="16.503770956769586">
        <ele>100.88</ele>
        <time>2025-01-27T12:33:57.555Z</time>
      </trkpt>
      <trkpt lat="58.67572797462344" lon="16.504045967012644">
        <ele>101.49</ele>
        <time>2025-01-27T12:34:12.459Z</time>
      </trkpt>
      <trkpt lat="58.67563493549824" lon="16.504395995289087">
        <ele>102.23</ele>
        <time>2025-01-27T12:34:27.391Z</time>
      </trkpt>
      <trkpt lat="58.67557399906218" lon="16.504535973072052">
        <ele>102.88</ele>
        <time>2025-01-27T12:34:42.335Z</time>
      </trkpt>
      <trkpt lat="58.67551792412996" lon="16.504760943353176">
        <ele>103.56</ele>
        <time>2025-01-27T12:34:57.297Z</time>
      </trkpt>
      <trkpt lat="58.675467800349" lon="16.505137626081705">
        <ele>104.29</ele>
        <time>2025-01-27T12:35:12.286Z</time>
      </trkpt>
      <trkpt lat="58.67541792802513" lon="16.505511961877346">
        <ele>105.01</ele>
        <time>2025-01-27T12:35:27.302Z</time>
      </trkpt>
      <trkpt lat="58.67531063966453" lon="16.505800718441606">
        <ele>105.58</ele>
        <time>2025-01-27T12:35:42.342Z</time>
      </trkpt>
      <trkpt lat="58.67520393803716" lon="16.506087966263294">
        <ele>106.13</ele>
        <time>2025-01-27T12:35:57.407Z</time>
      </trkpt>
      <trkpt lat="58.67520594969392" lon="16.5063379984349">
        <ele>106.62</ele>
        <time>2025-01-27T12:36:12.489Z</time>
      </trkpt>
      <trkpt lat="58.67525598965585" lon="16.50659599341452">
        <ele>107.03</ele>
        <time>2025-01-27T12:36:27.590Z</time>
      </trkpt>
      <trkpt lat="58.6752500385046" lon="16.506948117166758">
        <ele>107.45</ele>
        <time>2025-01-27T12:36:42.716Z</time>
      </trkpt>
      <trkpt lat="58.6752500385046" lon="16.50694870389998">
        <ele>107.72</ele>
        <time>2025-01-27T12:36:57.842Z</time>
      </trkpt>
      <trkpt lat="58.67525012232363" lon="16.50694870389998">
        <ele>107.92</ele>
        <time>2025-01-27T12:37:12.968Z</time>
      </trkpt>
      <trkpt lat="58.67525012232363" lon="16.506953816860914">
        <ele>108.06</ele>
        <time>2025-01-27T12:37:28.094Z</time>
      </trkpt>
      <trkpt lat="58.67524987086654" lon="16.50697074830532">
        <ele>108.11</ele>
        <time>2025-01-27T12:37:43.222Z</time>
      </trkpt>
      <trkpt lat="58.67524987086654" lon="16.506970832124352">
        <ele>108.1</ele>
        <time>2025-01-27T12:37:58.350Z</time>
      </trkpt>
      <trkpt lat="58.67524987086654" lon="16.506971083581448">
        <ele>108.01</ele>
        <time>2025-01-27T12:38:13.478Z</time>
      </trkpt>
      <trkpt lat="58.67524987086654" lon="16.50697125121951">
        <ele>107.85</ele>
        <time>2025-01-27T12:38:28.606Z</time>
      </trkpt>
      <trkpt lat="58.67524987086654" lon="16.506971837952733">
        <ele>107.61</ele>
        <time>2025-01-27T12:38:43.734Z</time>
      </trkpt>
      <trkpt lat="58.67524995468557" lon="16.506970999762416">
        <ele>107.31</ele>
        <time>2025-01-27T12:38:58.862Z</time>
      </trkpt>
      <trkpt lat="58.675249787047505" lon="16.50697125121951">
        <ele>106.95</ele>
        <time>2025-01-27T12:39:13.990Z</time>
      </trkpt>
      <trkpt lat="58.675091955810785" lon="16.50736494921148">
        <ele>106.52</ele>
        <time>2025-01-27T12:39:29.152Z</time>
      </trkpt>
      <trkpt lat="58.67500998079777" lon="16.5075399633497">
        <ele>106.02</ele>
        <time>2025-01-27T12:39:44.331Z</time>
      </trkpt>
      <trkpt lat="58.67500998079777" lon="16.507678935304284">
        <ele>105.45</ele>
        <time>2025-01-27T12:39:59.519Z</time>
      </trkpt>
      <trkpt lat="58.67495792917907" lon="16.508127953857183">
        <ele>104.82</ele>
        <time>2025-01-27T12:40:14.739Z</time>
      </trkpt>
      <trkpt lat="58.67468702606857" lon="16.50799979455769">
        <ele>104.16</ele>
        <time>2025-01-27T12:40:29.997Z</time>
      </trkpt>
      <trkpt lat="58.67441696114838" lon="16.507871970534325">
        <ele>103.43</ele>
        <time>2025-01-27T12:40:45.292Z</time>
      </trkpt>
      <trkpt lat="58.674275977537036" lon="16.50775395333767">
        <ele>102.78</ele>
        <time>2025-01-27T12:41:00.607Z</time>
      </trkpt>
      <trkpt lat="58.67400096729398" lon="16.507657980546355">
        <ele>102.12</ele>
        <time>2025-01-27T12:41:15.960Z</time>
      </trkpt>
      <trkpt lat="58.673949083313346" lon="16.507685976102948">
        <ele>101.53</ele>
        <time>2025-01-27T12:41:31.320Z</time>
      </trkpt>
      <trkpt lat="58.673782953992486" lon="16.50777599774301">
        <ele>100.95</ele>
        <time>2025-01-27T12:41:46.703Z</time>
      </trkpt>
      <trkpt lat="58.67359897121787" lon="16.507915975525975">
        <ele>100.4</ele>
        <time>2025-01-27T12:42:02.113Z</time>
      </trkpt>
      <trkpt lat="58.67343418300152" lon="16.507991077378392">
        <ele>99.91</ele>
        <time>2025-01-27T12:42:17.545Z</time>
      </trkpt>
      <trkpt lat="58.67326998151839" lon="16.508065927773714">
        <ele>99.5</ele>
        <time>2025-01-27T12:42:33.000Z</time>
      </trkpt>
      <trkpt lat="58.6732089612633" lon="16.508193919435143">
        <ele>99.16</ele>
        <time>2025-01-27T12:42:48.467Z</time>
      </trkpt>
      <trkpt lat="58.67308599874377" lon="16.508580995723605">
        <ele>98.93</ele>
        <time>2025-01-27T12:43:03.965Z</time>
      </trkpt>
      <trkpt lat="58.67287804372609" lon="16.508854497224092">
        <ele>98.63</ele>
        <time>2025-01-27T12:43:19.497Z</time>
      </trkpt>
      <trkpt lat="58.67267092689872" lon="16.5091269928962">
        <ele>98.45</ele>
        <time>2025-01-27T12:43:35.063Z</time>
      </trkpt>
      <trkpt lat="58.67265298962593" lon="16.50915691629052">
        <ele>98.37</ele>
        <time>2025-01-27T12:43:50.632Z</time>
      </trkpt>
      <trkpt lat="58.672639997676015" lon="16.50936394929886">
        <ele>98.42</ele>
        <time>2025-01-27T12:44:06.215Z</time>
      </trkpt>
      <trkpt lat="58.67251695133746" lon="16.50968598201871">
        <ele>98.51</ele>
        <time>2025-01-27T12:44:21.826Z</time>
      </trkpt>
      <trkpt lat="58.67241494357586" lon="16.510038943961263">
        <ele>98.64</ele>
        <time>2025-01-27T12:44:37.465Z</time>
      </trkpt>
      <trkpt lat="58.67228795774281" lon="16.510092923417687">
        <ele>98.7</ele>
        <time>2025-01-27T12:44:53.122Z</time>
      </trkpt>
      <trkpt lat="58.67215996608138" lon="16.510232985019684">
        <ele>98.81</ele>
        <time>2025-01-27T12:45:08.798Z</time>
      </trkpt>
      <trkpt lat="58.67201495915651" lon="16.510715950280428">
        <ele>98.98</ele>
        <time>2025-01-27T12:45:24.513Z</time>
      </trkpt>
      <trkpt lat="58.67187598720193" lon="16.51082298718393">
        <ele>99.09</ele>
        <time>2025-01-27T12:45:40.248Z</time>
      </trkpt>
      <trkpt lat="58.67166727781296" lon="16.510869674384594">
        <ele>99.19</ele>
        <time>2025-01-27T12:45:56.011Z</time>
      </trkpt>
      <trkpt lat="58.67145865224302" lon="16.51091644540429">
        <ele>99.22</ele>
        <time>2025-01-27T12:46:11.802Z</time>
      </trkpt>
      <trkpt lat="58.67125094868243" lon="16.510962964966893">
        <ele>99.13</ele>
        <time>2025-01-27T12:46:27.621Z</time>
      </trkpt>
      <trkpt lat="58.67118397727609" lon="16.511165974661708">
        <ele>99.13</ele>
        <time>2025-01-27T12:46:43.457Z</time>
      </trkpt>
      <trkpt lat="58.67095749825239" lon="16.51140787638724">
        <ele>99.03</ele>
        <time>2025-01-27T12:46:59.328Z</time>
      </trkpt>
      <trkpt lat="58.670731941238046" lon="16.511648939922452">
        <ele>98.86</ele>
        <time>2025-01-27T12:47:15.233Z</time>
      </trkpt>
      <trkpt lat="58.67068198509514" lon="16.511884974315763">
        <ele>98.77</ele>
        <time>2025-01-27T12:47:31.156Z</time>
      </trkpt>
      <trkpt lat="58.67045005783439" lon="16.51208379305899">
        <ele>98.63</ele>
        <time>2025-01-27T12:47:47.113Z</time>
      </trkpt>
      <trkpt lat="58.67021896876395" lon="16.512281941249967">
        <ele>98.49</ele>
        <time>2025-01-27T12:48:03.104Z</time>
      </trkpt>
      <trkpt lat="58.67014596238732" lon="16.5124649181962">
        <ele>98.43</ele>
        <time>2025-01-27T12:48:19.111Z</time>
      </trkpt>
      <trkpt lat="58.669978994876146" lon="16.512721991166472">
        <ele>98.33</ele>
        <time>2025-01-27T12:48:35.146Z</time>
      </trkpt>
      <trkpt lat="58.66990598849952" lon="16.512721991166472">
        <ele>98.21</ele>
        <time>2025-01-27T12:48:51.191Z</time>
      </trkpt>
      <trkpt lat="58.669654447585344" lon="16.512985434383154">
        <ele>98.15</ele>
        <time>2025-01-27T12:49:07.274Z</time>
      </trkpt>
      <trkpt lat="58.66940399631858" lon="16.513247955590487">
        <ele>98.08</ele>
        <time>2025-01-27T12:49:23.396Z</time>
      </trkpt>
      <trkpt lat="58.66925069130957" lon="16.513366140425205">
        <ele>98.02</ele>
        <time>2025-01-27T12:49:39.540Z</time>
      </trkpt>
      <trkpt lat="58.669097973033786" lon="16.513483989983797">
        <ele>98.05</ele>
        <time>2025-01-27T12:49:55.706Z</time>
      </trkpt>
      <trkpt lat="58.66901893168688" lon="16.51373092085123">
        <ele>98.22</ele>
        <time>2025-01-27T12:50:11.892Z</time>
      </trkpt>
      <trkpt lat="58.66890795528889" lon="16.51390199549496">
        <ele>98.33</ele>
        <time>2025-01-27T12:50:28.097Z</time>
      </trkpt>
      <trkpt lat="58.66864803247154" lon="16.51411682367325">
        <ele>98.5</ele>
        <time>2025-01-27T12:50:44.340Z</time>
      </trkpt>
      <trkpt lat="58.668388947844505" lon="16.51433098129928">
        <ele>98.77</ele>
        <time>2025-01-27T12:51:00.620Z</time>
      </trkpt>
      <trkpt lat="58.6683389917016" lon="16.514448998495936">
        <ele>99.09</ele>
        <time>2025-01-27T12:51:16.911Z</time>
      </trkpt>
      <trkpt lat="58.66818292066455" lon="16.514534996822476">
        <ele>99.35</ele>
        <time>2025-01-27T12:51:33.224Z</time>
      </trkpt>
      <trkpt lat="58.668104968965054" lon="16.514792991802096">
        <ele>99.82</ele>
        <time>2025-01-27T12:51:49.557Z</time>
      </trkpt>
      <trkpt lat="58.66804897785187" lon="16.51510396040976">
        <ele>100.23</ele>
        <time>2025-01-27T12:52:05.913Z</time>
      </trkpt>
      <trkpt lat="58.66805392317474" lon="16.515221977606416">
        <ele>100.66</ele>
        <time>2025-01-27T12:52:22.278Z</time>
      </trkpt>
      <trkpt lat="58.66803196258843" lon="16.51551199145615">
        <ele>101.16</ele>
        <time>2025-01-27T12:52:38.663Z</time>
      </trkpt>
      <trkpt lat="58.66809298284352" lon="16.515629924833775">
        <ele>101.66</ele>
        <time>2025-01-27T12:52:55.060Z</time>
      </trkpt>
      <trkpt lat="58.66822198033333" lon="16.51568298228085">
        <ele>102.18</ele>
        <time>2025-01-27T12:53:11.474Z</time>
      </trkpt>
      <trkpt lat="58.66823296062648" lon="16.515800999477506">
        <ele>102.63</ele>
        <time>2025-01-27T12:53:27.897Z</time>
      </trkpt>
      <trkpt lat="58.66819893009961" lon="16.51594097726047">
        <ele>103.05</ele>
        <time>2025-01-27T12:53:44.330Z</time>
      </trkpt>
      <trkpt lat="58.6682269256562" lon="16.516101993620396">
        <ele>103.52</ele>
        <time>2025-01-27T12:54:00.775Z</time>
      </trkpt>
      <trkpt lat="58.66826992481947" lon="16.516268961131573">
        <ele>103.91</ele>
        <time>2025-01-27T12:54:17.233Z</time>
      </trkpt>
      <trkpt lat="58.66816598922014" lon="16.516616977751255">
        <ele>104.29</ele>
        <time>2025-01-27T12:54:33.719Z</time>
      </trkpt>
      <trkpt lat="58.66809893399477" lon="16.5166699513793">
        <ele>104.52</ele>
        <time>2025-01-27T12:54:50.215Z</time>
      </trkpt>
      <trkpt lat="58.66804897785187" lon="16.51690598577261">
        <ele>104.68</ele>
        <time>2025-01-27T12:55:06.728Z</time>
      </trkpt>
      <trkpt lat="58.667869940400124" lon="16.5172069799155">
        <ele>104.72</ele>
        <time>2025-01-27T12:55:23.273Z</time>
      </trkpt>
      <trkpt lat="58.66781394928694" lon="16.517495987936854">
        <ele>104.73</ele>
        <time>2025-01-27T12:55:39.840Z</time>
      </trkpt>
      <trkpt lat="58.667674977332354" lon="16.51772196404636">
        <ele>104.51</ele>
        <time>2025-01-27T12:55:56.431Z</time>
      </trkpt>
      <trkpt lat="58.66751563735306" lon="16.51788323186338">
        <ele>104.25</ele>
        <time>2025-01-27T12:56:13.046Z</time>
      </trkpt>
      <trkpt lat="58.667356967926025" lon="16.51804399676621">
        <ele>103.93</ele>
        <time>2025-01-27T12:56:29.685Z</time>
      </trkpt>
      <trkpt lat="58.66729896515608" lon="16.51813494041562">
        <ele>103.61</ele>
        <time>2025-01-27T12:56:46.334Z</time>
      </trkpt>
      <trkpt lat="58.66718270815909" lon="16.51836854405701">
        <ele>103.23</ele>
        <time>2025-01-27T12:57:03.006Z</time>
      </trkpt>
      <trkpt lat="58.66706695407629" lon="16.51860097423196">
        <ele>102.86</ele>
        <time>2025-01-27T12:57:19.700Z</time>
      </trkpt>
      <trkpt lat="58.666904931887984" lon="16.518751932308078">
        <ele>102.34</ele>
        <time>2025-01-27T12:57:36.418Z</time>
      </trkpt>
      <trkpt lat="58.666820945218205" lon="16.51881597004831">
        <ele>101.87</ele>
        <time>2025-01-27T12:57:53.148Z</time>
      </trkpt>
      <trkpt lat="58.66670795716345" lon="16.518980925902724">
        <ele>101.41</ele>
        <time>2025-01-27T12:58:09.897Z</time>
      </trkpt>
      <trkpt lat="58.66661592386663" lon="16.519244955852628">
        <ele>101.0</ele>
        <time>2025-01-27T12:58:26.668Z</time>
      </trkpt>
      <trkpt lat="58.66656596772373" lon="16.519457940012217">
        <ele>100.65</ele>
        <time>2025-01-27T12:58:43.456Z</time>
      </trkpt>
      <trkpt lat="58.666537972167134" lon="16.519694980233908">
        <ele>100.33</ele>
        <time>2025-01-27T12:59:00.260Z</time>
      </trkpt>
      <trkpt lat="58.666409980505705" lon="16.519897989928722">
        <ele>99.92</ele>
        <time>2025-01-27T12:59:17.087Z</time>
      </trkpt>
      <trkpt lat="58.666328927502036" lon="16.520052971318364">
        <ele>99.55</ele>
        <time>2025-01-27T12:59:33.929Z</time>
      </trkpt>
      <trkpt lat="58.66618492640555" lon="16.520246928557754">
        <ele>99.13</ele>
        <time>2025-01-27T12:59:50.794Z</time>
      </trkpt>
      <trkpt lat="58.66611493751407" lon="16.520413979887962">
        <ele>98.74</ele>
        <time>2025-01-27T13:00:07.674Z</time>
      </trkpt>
      <trkpt lat="58.66603991948068" lon="16.52043594047427">
        <ele>98.25</ele>
        <time>2025-01-27T13:00:24.565Z</time>
      </trkpt>
      <trkpt lat="58.66588921286166" lon="16.520559657365084">
        <ele>97.74</ele>
        <time>2025-01-27T13:00:41.477Z</time>
      </trkpt>
      <trkpt lat="58.66573892533779" lon="16.520682955160737">
        <ele>97.26</ele>
        <time>2025-01-27T13:00:58.411Z</time>
      </trkpt>
      <trkpt lat="58.665548991411924" lon="16.521047987043858">
        <ele>96.83</ele>
        <time>2025-01-27T13:01:15.381Z</time>
      </trkpt>
      <trkpt lat="58.66540364921093" lon="16.521208751946688">
        <ele>96.35</ele>
        <time>2025-01-27T13:01:32.374Z</time>
      </trkpt>
      <trkpt lat="58.66525897756219" lon="16.521368930116296">
        <ele>95.9</ele>
        <time>2025-01-27T13:01:49.389Z</time>
      </trkpt>
      <trkpt lat="58.66508597508073" lon="16.521755922585726">
        <ele>95.52</ele>
        <time>2025-01-27T13:02:06.440Z</time>
      </trkpt>
      <trkpt lat="58.66502495482564" lon="16.522098993882537">
        <ele>95.21</ele>
        <time>2025-01-27T13:02:23.516Z</time>
      </trkpt>
      <trkpt lat="58.66496292874217" lon="16.52206697501242">
        <ele>94.81</ele>
        <time>2025-01-27T13:02:40.600Z</time>
      </trkpt>
      <trkpt lat="58.664840972051024" lon="16.522141993045807">
        <ele>94.43</ele>
        <time>2025-01-27T13:02:57.701Z</time>
      </trkpt>
      <trkpt lat="58.66480199620128" lon="16.52228096500039">
        <ele>94.13</ele>
        <time>2025-01-27T13:03:14.813Z</time>
      </trkpt>
      <trkpt lat="58.66460099816322" lon="16.52249596081674">
        <ele>93.78</ele>
        <time>2025-01-27T13:03:31.956Z</time>
      </trkpt>
      <trkpt lat="58.66455095820129" lon="16.522613978013396">
        <ele>93.52</ele>
        <time>2025-01-27T13:03:49.110Z</time>
      </trkpt>
      <trkpt lat="58.66446093656123" lon="16.522656977176666">
        <ele>93.23</ele>
        <time>2025-01-27T13:04:06.276Z</time>
      </trkpt>
      <trkpt lat="58.66439991630614" lon="16.52258195914328">
        <ele>92.97</ele>
        <time>2025-01-27T13:04:23.452Z</time>
      </trkpt>
      <trkpt lat="58.66420419886708" lon="16.522657060995698">
        <ele>92.71</ele>
        <time>2025-01-27T13:04:40.655Z</time>
      </trkpt>
      <trkpt lat="58.66400898434222" lon="16.52273199521005">
        <ele>92.49</ele>
        <time>2025-01-27T13:04:57.884Z</time>
      </trkpt>
      <trkpt lat="58.66393094882369" lon="16.52268899604678">
        <ele>92.35</ele>
        <time>2025-01-27T13:05:15.124Z</time>
      </trkpt>
      <trkpt lat="58.6638199724257" lon="16.522849928587675">
        <ele>92.32</ele>
        <time>2025-01-27T13:05:32.383Z</time>
      </trkpt>
      <trkpt lat="58.66372995078564" lon="16.523042963817716">
        <ele>92.4</ele>
        <time>2025-01-27T13:05:49.660Z</time>
      </trkpt>
      <trkpt lat="58.66343499161303" lon="16.52316098101437">
        <ele>92.44</ele>
        <time>2025-01-27T13:06:06.977Z</time>
      </trkpt>
      <trkpt lat="58.663389980793" lon="16.52328997850418">
        <ele>92.57</ele>
        <time>2025-01-27T13:06:24.305Z</time>
      </trkpt>
      <trkpt lat="58.66321362555027" lon="16.52348334901035">
        <ele>92.68</ele>
        <time>2025-01-27T13:06:41.660Z</time>
      </trkpt>
      <trkpt lat="58.663037940859795" lon="16.52367596514523">
        <ele>92.8</ele>
        <time>2025-01-27T13:06:59.042Z</time>
      </trkpt>
      <trkpt lat="58.66300499998033" lon="16.523750983178616">
        <ele>92.96</ele>
        <time>2025-01-27T13:07:16.431Z</time>
      </trkpt>
      <trkpt lat="58.66287692449987" lon="16.523858942091465">
        <ele>93.13</ele>
        <time>2025-01-27T13:07:33.838Z</time>
      </trkpt>
      <trkpt lat="58.66283199749887" lon="16.523943934589624">
        <ele>93.29</ele>
        <time>2025-01-27T13:07:51.254Z</time>
      </trkpt>
      <trkpt lat="58.66270895116031" lon="16.523986933752894">
        <ele>93.33</ele>
        <time>2025-01-27T13:08:08.687Z</time>
      </trkpt>
      <trkpt lat="58.66259193979204" lon="16.52412699535489">
        <ele>93.48</ele>
        <time>2025-01-27T13:08:26.138Z</time>
      </trkpt>
      <trkpt lat="58.662502923980355" lon="16.52410495094955">
        <ele>93.51</ele>
        <time>2025-01-27T13:08:43.601Z</time>
      </trkpt>
      <trkpt lat="58.662435952574015" lon="16.524330927059054">
        <ele>93.61</ele>
        <time>2025-01-27T13:09:01.082Z</time>
      </trkpt>
      <trkpt lat="58.66231894120574" lon="16.52451298199594">
        <ele>93.68</ele>
        <time>2025-01-27T13:09:18.583Z</time>
      </trkpt>
      <trkpt lat="58.6622519697994" lon="16.524694953113794">
        <ele>93.73</ele>
        <time>2025-01-27T13:09:36.100Z</time>
      </trkpt>
      <trkpt lat="58.66213998757303" lon="16.52470593340695">
        <ele>93.61</ele>
        <time>2025-01-27T13:09:53.632Z</time>
      </trkpt>
      <trkpt lat="58.66198391653597" lon="16.52517791837454">
        <ele>93.62</ele>
        <time>2025-01-27T13:10:11.203Z</time>
      </trkpt>
      <trkpt lat="58.66187998093665" lon="16.525577986612916">
        <ele>93.52</ele>
        <time>2025-01-27T13:10:28.805Z</time>
      </trkpt>
      <trkpt lat="58.66175559349358" lon="16.525908820331097">
        <ele>93.32</ele>
        <time>2025-01-27T13:10:46.435Z</time>
      </trkpt>
      <trkpt lat="58.6616319604218" lon="16.526237977668643">
        <ele>93.03</ele>
        <time>2025-01-27T13:11:04.094Z</time>
      </trkpt>
      <trkpt lat="58.66154998540878" lon="16.52662195265293">
        <ele>92.76</ele>
        <time>2025-01-27T13:11:21.781Z</time>
      </trkpt>
      <trkpt lat="58.661391986534" lon="16.526883970946074">
        <ele>92.41</ele>
        <time>2025-01-27T13:11:39.496Z</time>
      </trkpt>
      <trkpt lat="58.66109099239111" lon="16.526905931532383">
        <ele>91.96</ele>
        <time>2025-01-27T13:11:57.252Z</time>
      </trkpt>
      <trkpt lat="58.66102393716574" lon="16.52698094956577">
        <ele>91.63</ele>
        <time>2025-01-27T13:12:15.018Z</time>
      </trkpt>
      <trkpt lat="58.66092721000314" lon="16.527278255671263">
        <ele>91.32</ele>
        <time>2025-01-27T13:12:32.808Z</time>
      </trkpt>
      <trkpt lat="58.66083098575473" lon="16.527573969215155">
        <ele>91.07</ele>
        <time>2025-01-27T13:12:50.623Z</time>
      </trkpt>
      <trkpt lat="58.66071196272969" lon="16.527741942554712">
        <ele>90.77</ele>
        <time>2025-01-27T13:13:08.457Z</time>
      </trkpt>
      <trkpt lat="58.66048799827695" lon="16.528149973601103">
        <ele>90.4</ele>
        <time>2025-01-27T13:13:26.333Z</time>
      </trkpt>
      <trkpt lat="58.66046595387161" lon="16.528321970254183">
        <ele>90.06</ele>
        <time>2025-01-27T13:13:44.221Z</time>
      </trkpt>
      <trkpt lat="58.66055496968329" lon="16.528718937188387">
        <ele>89.68</ele>
        <time>2025-01-27T13:14:02.139Z</time>
      </trkpt>
      <trkpt lat="58.66051096469164" lon="16.528954971581697">
        <ele>89.28</ele>
        <time>2025-01-27T13:14:20.075Z</time>
      </trkpt>
      <trkpt lat="58.66039797663689" lon="16.529427962377667">
        <ele>88.88</ele>
        <time>2025-01-27T13:14:38.047Z</time>
      </trkpt>
      <trkpt lat="58.66019295528531" lon="16.529748989269137">
        <ele>88.47</ele>
        <time>2025-01-27T13:14:56.054Z</time>
      </trkpt>
      <trkpt lat="58.660075943917036" lon="16.529791988432407">
        <ele>88.05</ele>
        <time>2025-01-27T13:15:14.077Z</time>
      </trkpt>
      <trkpt lat="58.65984695032239" lon="16.529512954875827">
        <ele>87.49</ele>
        <time>2025-01-27T13:15:32.136Z</time>
      </trkpt>
      <trkpt lat="58.65968165919185" lon="16.529426788911223">
        <ele>86.99</ele>
        <time>2025-01-27T13:15:50.218Z</time>
      </trkpt>
      <trkpt lat="58.659516954794526" lon="16.529340958222747">
        <ele>86.53</ele>
        <time>2025-01-27T13:16:08.323Z</time>
      </trkpt>
      <trkpt lat="58.65930497646332" lon="16.529319919645786">
        <ele>86.11</ele>
        <time>2025-01-27T13:16:26.456Z</time>
      </trkpt>
      <trkpt lat="58.65916298702359" lon="16.52915596961975">
        <ele>85.77</ele>
        <time>2025-01-27T13:16:44.612Z</time>
      </trkpt>
      <trkpt lat="58.65909199230373" lon="16.529083969071507">
        <ele>85.58</ele>
        <time>2025-01-27T13:17:02.778Z</time>
      </trkpt>
      <trkpt lat="58.658847995102406" lon="16.528814993798733">
        <ele>85.46</ele>
        <time>2025-01-27T13:17:20.982Z</time>
      </trkpt>
      <trkpt lat="58.65869192406535" lon="16.528492961078882">
        <ele>85.44</ele>
        <time>2025-01-27T13:17:39.217Z</time>
      </trkpt>
      <trkpt lat="58.6585461627692" lon="16.528240414336324">
        <ele>85.47</ele>
        <time>2025-01-27T13:17:57.478Z</time>
      </trkpt>
      <trkpt lat="58.65840098820627" lon="16.527988957241178">
        <ele>85.55</ele>
        <time>2025-01-27T13:18:15.765Z</time>
      </trkpt>
      <trkpt lat="58.65826193243265" lon="16.527688968926668">
        <ele>85.74</ele>
        <time>2025-01-27T13:18:34.080Z</time>
      </trkpt>
      <trkpt lat="58.65819898433983" lon="16.527443965896964">
        <ele>85.94</ele>
        <time>2025-01-27T13:18:52.414Z</time>
      </trkpt>
      <trkpt lat="58.65792699158192" lon="16.527194939553738">
        <ele>86.14</ele>
        <time>2025-01-27T13:19:10.788Z</time>
      </trkpt>
      <trkpt lat="58.65768198855221" lon="16.527012968435884">
        <ele>86.25</ele>
        <time>2025-01-27T13:19:29.197Z</time>
      </trkpt>
      <trkpt lat="58.657601941376925" lon="16.526927975937724">
        <ele>86.39</ele>
        <time>2025-01-27T13:19:47.619Z</time>
      </trkpt>
      <trkpt lat="58.65753094665706" lon="16.526891933754086">
        <ele>86.53</ele>
        <time>2025-01-27T13:20:06.050Z</time>
      </trkpt>
      <trkpt lat="58.65748694166541" lon="16.526827979832888">
        <ele>86.67</ele>
        <time>2025-01-27T13:20:24.489Z</time>
      </trkpt>
      <trkpt lat="58.65740496665239" lon="16.52677098289132">
        <ele>86.79</ele>
        <time>2025-01-27T13:20:42.939Z</time>
      </trkpt>
      <trkpt lat="58.65720799192786" lon="16.526669980958104">
        <ele>86.87</ele>
        <time>2025-01-27T13:21:01.417Z</time>
      </trkpt>
      <trkpt lat="58.657136997208" lon="16.52659496292472">
        <ele>86.98</ele>
        <time>2025-01-27T13:21:19.906Z</time>
      </trkpt>
      <trkpt lat="58.656935999169946" lon="16.526270918548107">
        <ele>87.09</ele>
        <time>2025-01-27T13:21:38.430Z</time>
      </trkpt>
      <trkpt lat="58.65685595199466" lon="16.52616497129202">
        <ele>87.14</ele>
        <time>2025-01-27T13:21:56.967Z</time>
      </trkpt>
      <trkpt lat="58.65675495006144" lon="16.526089953258634">
        <ele>87.17</ele>
        <time>2025-01-27T13:22:15.518Z</time>
      </trkpt>
      <trkpt lat="58.6564929317683" lon="16.52618693187833">
        <ele>87.19</ele>
        <time>2025-01-27T13:22:34.105Z</time>
      </trkpt>
      <trkpt lat="58.65639494732022" lon="16.526308972388506">
        <ele>87.09</ele>
        <time>2025-01-27T13:22:52.707Z</time>
      </trkpt>
      <trkpt lat="58.65615690127015" lon="16.526487255468965">
        <ele>86.87</ele>
        <time>2025-01-27T13:23:11.344Z</time>
      </trkpt>
      <trkpt lat="58.65591885522008" lon="16.526665538549423">
        <ele>86.6</ele>
        <time>2025-01-27T13:23:30.015Z</time>
      </trkpt>
      <trkpt lat="58.65568198263645" lon="16.526842983439565">
        <ele>86.24</ele>
        <time>2025-01-27T13:23:48.720Z</time>
      </trkpt>
      <trkpt lat="58.655602941289544" lon="16.527080945670605">
        <ele>85.95</ele>
        <time>2025-01-27T13:24:07.444Z</time>
      </trkpt>
      <trkpt lat="58.65554795600474" lon="16.5272849611938">
        <ele>85.65</ele>
        <time>2025-01-27T13:24:26.184Z</time>
      </trkpt>
      <trkpt lat="58.655370930209756" lon="16.527527952566743">
        <ele>85.22</ele>
        <time>2025-01-27T13:24:44.953Z</time>
      </trkpt>
      <trkpt lat="58.65519214421511" lon="16.527705313637853">
        <ele>84.81</ele>
        <time>2025-01-27T13:25:03.749Z</time>
      </trkpt>
      <trkpt lat="58.65501394495368" lon="16.527881920337677">
        <ele>84.39</ele>
        <time>2025-01-27T13:25:22.572Z</time>
      </trkpt>
      <trkpt lat="58.65486298687756" lon="16.527956938371062">
        <ele>83.96</ele>
        <time>2025-01-27T13:25:41.416Z</time>
      </trkpt>
      <trkpt lat="58.65470414981246" lon="16.52794796973467">
        <ele>83.5</ele>
        <time>2025-01-27T13:26:00.281Z</time>
      </trkpt>
      <trkpt lat="58.65470381453633" lon="16.52794796973467">
        <ele>83.13</ele>
        <time>2025-01-27T13:26:19.146Z</time>
      </trkpt>
      <trkpt lat="58.65470113232732" lon="16.527947885915637">
        <ele>82.76</ele>
        <time>2025-01-27T13:26:38.012Z</time>
      </trkpt>
      <trkpt lat="58.65469199605286" lon="16.527947383001447">
        <ele>82.4</ele>
        <time>2025-01-27T13:26:56.879Z</time>
      </trkpt>
      <trkpt lat="58.65469191223383" lon="16.527947383001447">
        <ele>82.05</ele>
        <time>2025-01-27T13:27:15.746Z</time>
      </trkpt>
      <trkpt lat="58.6546918284148" lon="16.527947383001447">
        <ele>81.7</ele>
        <time>2025-01-27T13:27:34.613Z</time>
      </trkpt>
      <trkpt lat="58.654691744595766" lon="16.527947383001447">
        <ele>81.35</ele>
        <time>2025-01-27T13:27:53.480Z</time>
      </trkpt>
      <trkpt lat="58.65469048731029" lon="16.527947383001447">
        <ele>81.0</ele>
        <time>2025-01-27T13:28:12.347Z</time>
      </trkpt>
      <trkpt lat="58.65469015203416" lon="16.527947383001447">
        <ele>80.63</ele>
        <time>2025-01-27T13:28:31.214Z</time>
      </trkpt>
      <trkpt lat="58.654690235853195" lon="16.52794746682048">
        <ele>80.26</ele>
        <time>2025-01-27T13:28:50.081Z</time>
      </trkpt>
      <trkpt lat="58.65451798774302" lon="16.527937995269895">
        <ele>79.78</ele>
        <time>2025-01-27T13:29:08.971Z</time>
      </trkpt>
      <trkpt lat="58.65440592169762" lon="16.528094988316298">
        <ele>79.36</ele>
        <time>2025-01-27T13:29:27.880Z</time>
      </trkpt>
      <trkpt lat="58.6543049197644" lon="16.528473934158683">
        <ele>78.99</ele>
        <time>2025-01-27T13:29:46.818Z</time>
      </trkpt>
      <trkpt lat="58.65414893254638" lon="16.528611984103918">
        <ele>78.5</ele>
        <time>2025-01-27T13:30:05.779Z</time>
      </trkpt>
      <trkpt lat="58.65398095920682" lon="16.528503941372037">
        <ele>77.93</ele>
        <time>2025-01-27T13:30:24.764Z</time>
      </trkpt>
      <trkpt lat="58.653861936181784" lon="16.528556998819113">
        <ele>77.41</ele>
        <time>2025-01-27T13:30:43.765Z</time>
      </trkpt>
      <trkpt lat="58.6537919472903" lon="16.52855792082846">
        <ele>76.89</ele>
        <time>2025-01-27T13:31:02.776Z</time>
      </trkpt>
      <trkpt lat="58.65368591621518" lon="16.528610978275537">
        <ele>76.35</ele>
        <time>2025-01-27T13:31:21.801Z</time>
      </trkpt>
      <trkpt lat="58.65342892706394" lon="16.528621958568692">
        <ele>75.78</ele>
        <time>2025-01-27T13:31:40.861Z</time>
      </trkpt>
      <trkpt lat="58.65322306752205" lon="16.528840893879533">
        <ele>75.27</ele>
        <time>2025-01-27T13:31:59.952Z</time>
      </trkpt>
      <trkpt lat="58.65301796235144" lon="16.529058991000056">
        <ele>74.76</ele>
        <time>2025-01-27T13:32:19.075Z</time>
      </trkpt>
      <trkpt lat="58.65288695320487" lon="16.528986990451813">
        <ele>74.19</ele>
        <time>2025-01-27T13:32:38.216Z</time>
      </trkpt>
      <trkpt lat="58.65271998569369" lon="16.529104923829436">
        <ele>73.67</ele>
        <time>2025-01-27T13:32:57.380Z</time>
      </trkpt>
      <trkpt lat="58.65252493880689" lon="16.52930893935263">
        <ele>73.15</ele>
        <time>2025-01-27T13:33:16.574Z</time>
      </trkpt>
      <trkpt lat="58.65243097767234" lon="16.529488982632756">
        <ele>72.64</ele>
        <time>2025-01-27T13:33:35.786Z</time>
      </trkpt>
      <trkpt lat="58.652210952714086" lon="16.529464926570654">
        <ele>72.04</ele>
        <time>2025-01-27T13:33:55.027Z</time>
      </trkpt>
      <trkpt lat="58.652060916647315" lon="16.529555954039097">
        <ele>71.6</ele>
        <time>2025-01-27T13:34:14.289Z</time>
      </trkpt>
      <trkpt lat="58.6518769338727" lon="16.52960892766714">
        <ele>71.09</ele>
        <time>2025-01-27T13:34:33.576Z</time>
      </trkpt>
      <trkpt lat="58.65178498439491" lon="16.529676988720894">
        <ele>70.64</ele>
        <time>2025-01-27T13:34:52.876Z</time>
      </trkpt>
      <trkpt lat="58.65165699273348" lon="16.52960892766714">
        <ele>70.14</ele>
        <time>2025-01-27T13:35:12.194Z</time>
      </trkpt>
      <trkpt lat="58.65153696388006" lon="16.529297959059477">
        <ele>69.63</ele>
        <time>2025-01-27T13:35:31.539Z</time>
      </trkpt>
      <trkpt lat="58.65147393196821" lon="16.52930499985814">
        <ele>69.25</ele>
        <time>2025-01-27T13:35:50.893Z</time>
      </trkpt>
      <trkpt lat="58.651371924206614" lon="16.529487976804376">
        <ele>68.92</ele>
        <time>2025-01-27T13:36:10.265Z</time>
      </trkpt>
      <trkpt lat="58.651201939210296" lon="16.529725939035416">
        <ele>68.59</ele>
        <time>2025-01-27T13:36:29.665Z</time>
      </trkpt>
      <trkpt lat="58.65116296336055" lon="16.529837921261787">
        <ele>68.46</ele>
        <time>2025-01-27T13:36:49.075Z</time>
      </trkpt>
      <trkpt lat="58.651002952829" lon="16.530072949826717">
        <ele>68.29</ele>
        <time>2025-01-27T13:37:08.512Z</time>
      </trkpt>
      <trkpt lat="58.650854928418994" lon="16.530086947605014">
        <ele>68.18</ele>
        <time>2025-01-27T13:37:27.969Z</time>
      </trkpt>
      <trkpt lat="58.650768930092454" lon="16.530071943998337">
        <ele>68.23</ele>
        <time>2025-01-27T13:37:47.437Z</time>
      </trkpt>
      <trkpt lat="58.65066792815924" lon="16.530126929283142">
        <ele>68.34</ele>
        <time>2025-01-27T13:38:06.919Z</time>
      </trkpt>
      <trkpt lat="58.65061596035957" lon="16.53059598058462">
        <ele>68.71</ele>
        <time>2025-01-27T13:38:26.435Z</time>
      </trkpt>
      <trkpt lat="58.65060858428478" lon="16.531021362170577">
        <ele>69.15</ele>
        <time>2025-01-27T13:38:45.980Z</time>
      </trkpt>
      <trkpt lat="58.65060120820999" lon="16.531446743756533">
        <ele>69.68</ele>
        <time>2025-01-27T13:39:05.555Z</time>
      </trkpt>
      <trkpt lat="58.650593999773264" lon="16.531867934390903">
        <ele>70.08</ele>
        <time>2025-01-27T13:39:25.159Z</time>
      </trkpt>
      <trkpt lat="58.65060699172318" lon="16.53220253996551">
        <ele>70.29</ele>
        <time>2025-01-27T13:39:44.787Z</time>
      </trkpt>
      <trkpt lat="58.650619983673096" lon="16.532534966245294">
        <ele>70.41</ele>
        <time>2025-01-27T13:40:04.438Z</time>
      </trkpt>
      <trkpt lat="58.65071796812117" lon="16.532985996454954">
        <ele>70.39</ele>
        <time>2025-01-27T13:40:24.123Z</time>
      </trkpt>
      <trkpt lat="58.65064797922969" lon="16.533225970342755">
        <ele>70.18</ele>
        <time>2025-01-27T13:40:43.827Z</time>
      </trkpt>
      <trkpt lat="58.65050196647644" lon="16.53334599919617">
        <ele>69.74</ele>
        <time>2025-01-27T13:41:03.552Z</time>
      </trkpt>
      <trkpt lat="58.65027096122503" lon="16.533203925937414">
        <ele>69.06</ele>
        <time>2025-01-27T13:41:23.310Z</time>
      </trkpt>
      <trkpt lat="58.649973990395665" lon="16.53304198756814">
        <ele>68.03</ele>
        <time>2025-01-27T13:41:43.109Z</time>
      </trkpt>
      <trkpt lat="58.649885980412364" lon="16.53306495398283">
        <ele>66.99</ele>
        <time>2025-01-27T13:42:02.920Z</time>
      </trkpt>
      <trkpt lat="58.64974399097264" lon="16.5331269800663">
        <ele>65.75</ele>
        <time>2025-01-27T13:42:22.750Z</time>
      </trkpt>
      <trkpt lat="58.649631924927235" lon="16.532885916531086">
        <ele>64.27</ele>
        <time>2025-01-27T13:42:42.603Z</time>
      </trkpt>
      <trkpt lat="58.649513153359294" lon="16.53264032676816">
        <ele>62.64</ele>
        <time>2025-01-27T13:43:02.479Z</time>
      </trkpt>
      <trkpt lat="58.649394968524575" lon="16.53239599429071">
        <ele>60.81</ele>
        <time>2025-01-27T13:43:22.378Z</time>
      </trkpt>
      <trkpt lat="58.649256667122245" lon="16.532234642654657">
        <ele>58.84</ele>
        <time>2025-01-27T13:43:42.299Z</time>
      </trkpt>
      <trkpt lat="58.649118952453136" lon="16.53207396157086">
        <ele>56.7</ele>
        <time>2025-01-27T13:44:02.242Z</time>
      </trkpt>
      <trkpt lat="58.64906799048185" lon="16.53196499682963">
        <ele>54.6</ele>
        <time>2025-01-27T13:44:22.195Z</time>
      </trkpt>
      <trkpt lat="58.64886799827218" lon="16.53212098404765">
        <ele>52.38</ele>
        <time>2025-01-27T13:44:42.177Z</time>
      </trkpt>
      <trkpt lat="58.64872399717569" lon="16.532172951847315">
        <ele>50.04</ele>
        <time>2025-01-27T13:45:02.178Z</time>
      </trkpt>
      <trkpt lat="58.648644955828786" lon="16.532387947663665">
        <ele>48.0</ele>
        <time>2025-01-27T13:45:22.197Z</time>
      </trkpt>
      <trkpt lat="58.648580918088555" lon="16.53244192712009">
        <ele>45.84</ele>
        <time>2025-01-27T13:45:42.226Z</time>
      </trkpt>
      <trkpt lat="58.64846692420542" lon="16.532602943480015">
        <ele>43.62</ele>
        <time>2025-01-27T13:46:02.274Z</time>
      </trkpt>
      <trkpt lat="58.64833197556436" lon="16.532863955944777">
        <ele>41.45</ele>
        <time>2025-01-27T13:46:22.347Z</time>
      </trkpt>
      <trkpt lat="58.64830993115902" lon="16.53317098505795">
        <ele>39.64</ele>
        <time>2025-01-27T13:46:42.442Z</time>
      </trkpt>
      <trkpt lat="58.64828294143081" lon="16.5333859808743">
        <ele>37.74</ele>
        <time>2025-01-27T13:47:02.552Z</time>
      </trkpt>
      <trkpt lat="58.64833298139274" lon="16.53362193144858">
        <ele>36.17</ele>
        <time>2025-01-27T13:47:22.680Z</time>
      </trkpt>
      <trkpt lat="58.648108933120966" lon="16.534018982201815">
        <ele>33.59</ele>
        <time>2025-01-27T13:47:42.849Z</time>
      </trkpt>
      <trkpt lat="58.64807833917439" lon="16.534433299675584">
        <ele>31.88</ele>
        <time>2025-01-27T13:48:03.047Z</time>
      </trkpt>
      <trkpt lat="58.64804799668491" lon="16.534844934940338">
        <ele>30.17</ele>
        <time>2025-01-27T13:48:23.274Z</time>
      </trkpt>
      <trkpt lat="58.648058976978064" lon="16.535155987367034">
        <ele>28.72</ele>
        <time>2025-01-27T13:48:43.523Z</time>
      </trkpt>
      <trkpt lat="58.648108933120966" lon="16.535445917397738">
        <ele>27.48</ele>
        <time>2025-01-27T13:49:03.793Z</time>
      </trkpt>
      <trkpt lat="58.64801497198641" lon="16.535777924582362">
        <ele>25.77</ele>
        <time>2025-01-27T13:49:24.089Z</time>
      </trkpt>
      <trkpt lat="58.64802595227957" lon="16.535949921235442">
        <ele>24.47</ele>
        <time>2025-01-27T13:49:44.397Z</time>
      </trkpt>
      <trkpt lat="58.6478809453547" lon="16.536067938432097">
        <ele>22.64</ele>
        <time>2025-01-27T13:50:04.726Z</time>
      </trkpt>
      <trkpt lat="58.647826965898275" lon="16.53628796339035">
        <ele>21.23</ele>
        <time>2025-01-27T13:50:25.072Z</time>
      </trkpt>
      <trkpt lat="58.647629991173744" lon="16.536296932026744">
        <ele>19.49</ele>
        <time>2025-01-27T13:50:45.445Z</time>
      </trkpt>
      <trkpt lat="58.64749898202717" lon="16.53619995340705">
        <ele>18.14</ele>
        <time>2025-01-27T13:51:05.837Z</time>
      </trkpt>
      <trkpt lat="58.64736118353903" lon="16.53632601723075">
        <ele>17.1</ele>
        <time>2025-01-27T13:51:26.249Z</time>
      </trkpt>
      <trkpt lat="58.64735699258745" lon="16.53632995672524">
        <ele>16.43</ele>
        <time>2025-01-27T13:51:46.662Z</time>
      </trkpt>
      <trkpt lat="58.64736998453736" lon="16.536551993340254">
        <ele>16.02</ele>
        <time>2025-01-27T13:52:07.090Z</time>
      </trkpt>
      <trkpt lat="58.64733897149563" lon="16.537033952772617">
        <ele>15.78</ele>
        <time>2025-01-27T13:52:27.552Z</time>
      </trkpt>
      <trkpt lat="58.647420946508646" lon="16.53723193332553">
        <ele>15.87</ele>
        <time>2025-01-27T13:52:48.032Z</time>
      </trkpt>
      <trkpt lat="58.647288931533694" lon="16.537776924669743">
        <ele>15.88</ele>
        <time>2025-01-27T13:53:08.553Z</time>
      </trkpt>
      <trkpt lat="58.64728298038244" lon="16.538281934335828">
        <ele>16.23</ele>
        <time>2025-01-27T13:53:29.110Z</time>
      </trkpt>
      <trkpt lat="58.64730393514037" lon="16.538807982578874">
        <ele>16.85</ele>
        <time>2025-01-27T13:53:49.703Z</time>
      </trkpt>
      <trkpt lat="58.64733997732401" lon="16.53933998197317">
        <ele>17.53</ele>
        <time>2025-01-27T13:54:10.334Z</time>
      </trkpt>
      <trkpt lat="58.647377947345376" lon="16.539457999169827">
        <ele>18.3</ele>
        <time>2025-01-27T13:54:30.974Z</time>
      </trkpt>
      <trkpt lat="58.64755698479712" lon="16.53985496610403">
        <ele>19.5</ele>
        <time>2025-01-27T13:54:51.651Z</time>
      </trkpt>
      <trkpt lat="58.647628985345364" lon="16.540149925276637">
        <ele>20.57</ele>
        <time>2025-01-27T13:55:12.351Z</time>
      </trkpt>
      <trkpt lat="58.647542065009475" lon="16.540578911080956">
        <ele>21.34</ele>
        <time>2025-01-27T13:55:33.083Z</time>
      </trkpt>
      <trkpt lat="58.647455060854554" lon="16.541007896885276">
        <ele>22.16</ele>
        <time>2025-01-27T13:55:53.847Z</time>
      </trkpt>
      <trkpt lat="58.64736897870898" lon="16.541432943195105">
        <ele>22.96</ele>
        <time>2025-01-27T13:56:14.643Z</time>
      </trkpt>
      <trkpt lat="58.64738792181015" lon="16.54169797897339">
        <ele>23.98</ele>
        <time>2025-01-27T13:56:35.457Z</time>
      </trkpt>
      <trkpt lat="58.64735598675907" lon="16.542038954794407">
        <ele>24.95</ele>
        <time>2025-01-27T13:56:56.295Z</time>
      </trkpt>
      <trkpt lat="58.647393956780434" lon="16.542078936472535">
        <ele>26.07</ele>
        <time>2025-01-27T13:57:17.139Z</time>
      </trkpt>
      <trkpt lat="58.64744299091399" lon="16.542050940915942">
        <ele>27.22</ele>
        <time>2025-01-27T13:57:37.990Z</time>
      </trkpt>
      <trkpt lat="58.64751893095672" lon="16.541985981166363">
        <ele>28.45</ele>
        <time>2025-01-27T13:57:58.852Z</time>
      </trkpt>
      <trkpt lat="58.647526977583766" lon="16.542014982551336">
        <ele>29.5</ele>
        <time>2025-01-27T13:58:19.716Z</time>
      </trkpt>
      <trkpt lat="58.64753795787692" lon="16.542061921209097">
        <ele>30.56</ele>
        <time>2025-01-27T13:58:40.584Z</time>
      </trkpt>
      <trkpt lat="58.64754097536206" lon="16.542075918987393">
        <ele>31.6</ele>
        <time>2025-01-27T13:59:01.453Z</time>
      </trkpt>
      <trkpt lat="58.64751197397709" lon="16.54217599891126">
        <ele>32.56</ele>
        <time>2025-01-27T13:59:22.330Z</time>
      </trkpt>
      <trkpt lat="58.647505939006805" lon="16.542293932288885">
        <ele>33.59</ele>
        <time>2025-01-27T13:59:43.215Z</time>
      </trkpt>
      <trkpt lat="58.64750996232033" lon="16.542443968355656">
        <ele>34.66</ele>
        <time>2025-01-27T14:00:04.111Z</time>
      </trkpt>
      <trkpt lat="58.647482972592115" lon="16.54262199997902">
        <ele>35.67</ele>
        <time>2025-01-27T14:00:25.020Z</time>
      </trkpt>
      <trkpt lat="58.64758095704019" lon="16.54290396720171">
        <ele>37.01</ele>
        <time>2025-01-27T14:00:45.952Z</time>
      </trkpt>
      <trkpt lat="58.64753996953368" lon="16.543173948302865">
        <ele>38.11</ele>
        <time>2025-01-27T14:01:06.904Z</time>
      </trkpt>
      <trkpt lat="58.64752999506891" lon="16.543242931365967">
        <ele>39.13</ele>
        <time>2025-01-27T14:01:27.861Z</time>
      </trkpt>
      <trkpt lat="58.647800981998444" lon="16.543153999373317">
        <ele>40.63</ele>
        <time>2025-01-27T14:01:48.855Z</time>
      </trkpt>
      <trkpt lat="58.647935930639505" lon="16.543366983532906">
        <ele>41.83</ele>
        <time>2025-01-27T14:02:09.872Z</time>
      </trkpt>
      <trkpt lat="58.64798999391496" lon="16.543663954362273">
        <ele>42.75</ele>
        <time>2025-01-27T14:02:30.911Z</time>
      </trkpt>
      <trkpt lat="58.64812192507088" lon="16.543965954333544">
        <ele>43.58</ele>
        <time>2025-01-27T14:02:51.977Z</time>
      </trkpt>
      <trkpt lat="58.64815997891128" lon="16.544016916304827">
        <ele>44.19</ele>
        <time>2025-01-27T14:03:13.050Z</time>
      </trkpt>
      <trkpt lat="58.64820792339742" lon="16.544079948216677">
        <ele>44.7</ele>
        <time>2025-01-27T14:03:34.130Z</time>
      </trkpt>
      <trkpt lat="58.64824991673231" lon="16.544374991208315">
        <ele>45.07</ele>
        <time>2025-01-27T14:03:55.232Z</time>
      </trkpt>
      <trkpt lat="58.64824991673231" lon="16.54485996812582">
        <ele>45.31</ele>
        <time>2025-01-27T14:04:16.367Z</time>
      </trkpt>
      <trkpt lat="58.64827095530927" lon="16.54498695395887">
        <ele>45.52</ele>
        <time>2025-01-27T14:04:37.512Z</time>
      </trkpt>
      <trkpt lat="58.64828595891595" lon="16.54513699002564">
        <ele>45.7</ele>
        <time>2025-01-27T14:04:58.667Z</time>
      </trkpt>
      <trkpt lat="58.64819996058941" lon="16.545262970030308">
        <ele>45.79</ele>
        <time>2025-01-27T14:05:19.837Z</time>
      </trkpt>
      <trkpt lat="58.64808093756437" lon="16.54550596140325">
        <ele>45.82</ele>
        <time>2025-01-27T14:05:41.030Z</time>
      </trkpt>
      <trkpt lat="58.647997956722975" lon="16.545681981369853">
        <ele>45.93</ele>
        <time>2025-01-27T14:06:02.240Z</time>
      </trkpt>
      <trkpt lat="58.64808697253466" lon="16.545876944437623">
        <ele>46.19</ele>
        <time>2025-01-27T14:06:23.468Z</time>
      </trkpt>
      <trkpt lat="58.648299956694245" lon="16.545961936935782">
        <ele>46.58</ele>
        <time>2025-01-27T14:06:44.725Z</time>
      </trkpt>
      <trkpt lat="58.648532973602414" lon="16.545919943600893">
        <ele>47.05</ele>
        <time>2025-01-27T14:07:06.013Z</time>
      </trkpt>
      <trkpt lat="58.648705976083875" lon="16.546016922220588">
        <ele>47.53</ele>
        <time>2025-01-27T14:07:27.325Z</time>
      </trkpt>
      <trkpt lat="58.64878392778337" lon="16.545930923894048">
        <ele>48.04</ele>
        <time>2025-01-27T14:07:48.649Z</time>
      </trkpt>
      <trkpt lat="58.648884762078524" lon="16.546199647709727">
        <ele>48.69</ele>
        <time>2025-01-27T14:08:09.996Z</time>
      </trkpt>
      <trkpt lat="58.64898492582142" lon="16.546466946601868">
        <ele>49.48</ele>
        <time>2025-01-27T14:08:31.366Z</time>
      </trkpt>
      <trkpt lat="58.64913093857467" lon="16.546638943254948">
        <ele>50.34</ele>
        <time>2025-01-27T14:08:52.759Z</time>
      </trkpt>
      <trkpt lat="58.64916396327317" lon="16.546699963510036">
        <ele>51.29</ele>
        <time>2025-01-27T14:09:14.158Z</time>
      </trkpt>
      <trkpt lat="58.64928726106882" lon="16.546927448362112">
        <ele>52.44</ele>
        <time>2025-01-27T14:09:35.580Z</time>
      </trkpt>
      <trkpt lat="58.64940997213125" lon="16.547153927385807">
        <ele>53.77</ele>
        <time>2025-01-27T14:09:57.025Z</time>
      </trkpt>
      <trkpt lat="58.64946495741606" lon="16.547389961779118">
        <ele>55.24</ele>
        <time>2025-01-27T14:10:18.488Z</time>
      </trkpt>
      <trkpt lat="58.64963795989752" lon="16.5475289337337">
        <ele>56.79</ele>
        <time>2025-01-27T14:10:39.976Z</time>
      </trkpt>
      <trkpt lat="58.649760922417045" lon="16.547464979812503">
        <ele>58.26</ele>
        <time>2025-01-27T14:11:01.481Z</time>
      </trkpt>
      <trkpt lat="58.64992294460535" lon="16.547421980649233">
        <ele>59.91</ele>
        <time>2025-01-27T14:11:23.008Z</time>
      </trkpt>
      <trkpt lat="58.65007893182337" lon="16.54744293540716">
        <ele>61.69</ele>
        <time>2025-01-27T14:11:44.556Z</time>
      </trkpt>
      <trkpt lat="58.65015797317028" lon="16.547807967290282">
        <ele>63.68</ele>
        <time>2025-01-27T14:12:06.131Z</time>
      </trkpt>
      <trkpt lat="58.6503469850868" lon="16.548215998336673">
        <ele>65.78</ele>
        <time>2025-01-27T14:12:27.744Z</time>
      </trkpt>
      <trkpt lat="58.65043692290783" lon="16.548548927530646">
        <ele>67.76</ele>
        <time>2025-01-27T14:12:49.383Z</time>
      </trkpt>
      <trkpt lat="58.65049794316292" lon="16.54862394556403">
        <ele>69.6</ele>
        <time>2025-01-27T14:13:11.032Z</time>
      </trkpt>
      <trkpt lat="58.65049794316292" lon="16.548902979120612">
        <ele>71.46</ele>
        <time>2025-01-27T14:13:32.700Z</time>
      </trkpt>
      <trkpt lat="58.65062593482435" lon="16.54924596659839">
        <ele>73.38</ele>
        <time>2025-01-27T14:13:54.398Z</time>
      </trkpt>
      <trkpt lat="58.65065007470548" lon="16.54956196434796">
        <ele>75.23</ele>
        <time>2025-01-27T14:14:16.118Z</time>
      </trkpt>
      <trkpt lat="58.65067396312952" lon="16.549875950440764">
        <ele>77.07</ele>
        <time>2025-01-27T14:14:37.860Z</time>
      </trkpt>
      <trkpt lat="58.65081603638828" lon="16.550271660089493">
        <ele>78.95</ele>
        <time>2025-01-27T14:14:59.636Z</time>
      </trkpt>
      <trkpt lat="58.650958025828004" lon="16.550667453557253">
        <ele>80.67</ele>
        <time>2025-01-27T14:15:21.445Z</time>
      </trkpt>
      <trkpt lat="58.65109548904002" lon="16.55105042271316">
        <ele>82.34</ele>
        <time>2025-01-27T14:15:43.287Z</time>
      </trkpt>
      <trkpt lat="58.65109892562032" lon="16.551059978082776">
        <ele>83.82</ele>
        <time>2025-01-27T14:16:05.129Z</time>
      </trkpt>
      <trkpt lat="58.651218954473734" lon="16.55102695338428">
        <ele>85.27</ele>
        <time>2025-01-27T14:16:26.988Z</time>
      </trkpt>
      <trkpt lat="58.651351975277066" lon="16.55100499279797">
        <ele>86.74</ele>
        <time>2025-01-27T14:16:48.864Z</time>
      </trkpt>
      <trkpt lat="58.651502933353186" lon="16.55104799196124">
        <ele>88.15</ele>
        <time>2025-01-27T14:17:10.761Z</time>
      </trkpt>
      <trkpt lat="58.65168699994683" lon="16.551401959732175">
        <ele>89.56</ele>
        <time>2025-01-27T14:17:32.693Z</time>
      </trkpt>
      <trkpt lat="58.65177593193948" lon="16.551680993288755">
        <ele>90.76</ele>
        <time>2025-01-27T14:17:54.647Z</time>
      </trkpt>
      <trkpt lat="58.65198304876685" lon="16.551978550851345">
        <ele>92.01</ele>
        <time>2025-01-27T14:18:16.636Z</time>
      </trkpt>
      <trkpt lat="58.65219016559422" lon="16.552276192232966">
        <ele>93.09</ele>
        <time>2025-01-27T14:18:38.660Z</time>
      </trkpt>
      <trkpt lat="58.65239594131708" lon="16.55257198959589">
        <ele>93.9</ele>
        <time>2025-01-27T14:19:00.718Z</time>
      </trkpt>
      <trkpt lat="58.65251622162759" lon="16.55277089215815">
        <ele>94.4</ele>
        <time>2025-01-27T14:19:22.797Z</time>
      </trkpt>
      <trkpt lat="58.652635999023914" lon="16.552968956530094">
        <ele>94.66</ele>
        <time>2025-01-27T14:19:44.897Z</time>
      </trkpt>
      <trkpt lat="58.65284194238484" lon="16.55317297205329">
        <ele>94.71</ele>
        <time>2025-01-27T14:20:07.028Z</time>
      </trkpt>
      <trkpt lat="58.652966329827905" lon="16.553551834076643">
        <ele>94.49</ele>
        <time>2025-01-27T14:20:29.191Z</time>
      </trkpt>
      <trkpt lat="58.65297295153141" lon="16.553571950644255">
        <ele>94.42</ele>
        <time>2025-01-27T14:20:51.355Z</time>
      </trkpt>
      <trkpt lat="58.652942944318056" lon="16.55377898365259">
        <ele>94.25</ele>
        <time>2025-01-27T14:21:13.534Z</time>
      </trkpt>
      <trkpt lat="58.65295392461121" lon="16.55388099141419">
        <ele>94.06</ele>
        <time>2025-01-27T14:21:35.720Z</time>
      </trkpt>
      <trkpt lat="58.653088957071304" lon="16.55409992672503">
        <ele>93.8</ele>
        <time>2025-01-27T14:21:57.930Z</time>
      </trkpt>
      <trkpt lat="58.65311896428466" lon="16.554364962503314">
        <ele>93.76</ele>
        <time>2025-01-27T14:22:20.159Z</time>
      </trkpt>
      <trkpt lat="58.65303799510002" lon="16.554624969139695">
        <ele>93.89</ele>
        <time>2025-01-27T14:22:42.409Z</time>
      </trkpt>
      <trkpt lat="58.652892988175154" lon="16.55493199825287">
        <ele>94.09</ele>
        <time>2025-01-27T14:23:04.688Z</time>
      </trkpt>
      <trkpt lat="58.652919977903366" lon="16.55523299239576">
        <ele>94.36</ele>
        <time>2025-01-27T14:23:26.988Z</time>
      </trkpt>
      <trkpt lat="58.653133967891335" lon="16.55562593601644">
        <ele>94.78</ele>
        <time>2025-01-27T14:23:49.328Z</time>
      </trkpt>
      <trkpt lat="58.65321099758148" lon="16.555736996233463">
        <ele>94.91</ele>
        <time>2025-01-27T14:24:11.681Z</time>
      </trkpt>
      <trkpt lat="58.65346496924758" lon="16.55603195540607">
        <ele>95.04</ele>
        <time>2025-01-27T14:24:34.073Z</time>
      </trkpt>
      <trkpt lat="58.65350696258247" lon="16.556079983711243">
        <ele>95.03</ele>
        <time>2025-01-27T14:24:56.472Z</time>
      </trkpt>
      <trkpt lat="58.65369597449899" lon="16.556251980364323">
        <ele>95.0</ele>
        <time>2025-01-27T14:25:18.899Z</time>
      </trkpt>
      <trkpt lat="58.653969978913665" lon="16.55618693679571">
        <ele>94.87</ele>
        <time>2025-01-27T14:25:41.363Z</time>
      </trkpt>
      <trkpt lat="58.65420391783118" lon="16.556047964841127">
        <ele>94.71</ele>
        <time>2025-01-27T14:26:03.859Z</time>
      </trkpt>
      <trkpt lat="58.654262172058225" lon="16.555951070040464">
        <ele>94.59</ele>
        <time>2025-01-27T14:26:26.366Z</time>
      </trkpt>
    </trkseg>
  </trk>
</gpx>
